PWSweather.com
Personal Weather Stations
Station Observations
IQUEENSL78
Red HillAU 4059

Red HillAU 4059

Lat: -27.45317, Lon: 152.997708

Elevation: 40

Station Type: FOS WH3081

High Low Average
Temperature 73.0°F22.8°C 70.5°F21.4°C 71.8°F22.1°C
Dew Point 70.4°F21.3°C 67.8°F19.9°C 69.3°F20.7°C
Winds 9.4 mph 15.1 kmh Calm Calm 1.0 mph NE1.6 kmh NE
Wind Gusts 9.4 mph15.1 kmh -- 2.0 mph3.2 kmh
Humidity 94% 90% 92%
Pressure 29.89 in1012.2 mb 29.79 in1008.8 mb -
Precipitation 5.10 in129.5 mm - -
Hour Temp Dew Point Humidity Winds Wind Gusts Pressure Precip Precip Rate Daily Precip Total
12:01 AM 72.5°F22.5°C 69.4°F20.8°C 90% Calm Calm -- 29.88 in1011.9 mb 0.00 in0.0 mm 0.00 in/hr0.0 mm/hr 0.00 in0.0 mm
12:03 AM 72.5°F22.5°C 69.4°F20.8°C 90% Calm Calm -- 29.88 in1011.9 mb 0.00 in0.0 mm 0.00 in/hr0.0 mm/hr 0.00 in0.0 mm
12:05 AM 72.5°F22.5°C 69.4°F20.8°C 90% Calm Calm -- 29.88 in1011.9 mb 0.00 in0.0 mm 0.00 in/hr0.0 mm/hr 0.00 in0.0 mm
12:07 AM 72.5°F22.5°C 69.4°F20.8°C 90% Calm Calm -- 29.89 in1012.2 mb 0.00 in0.0 mm 0.00 in/hr0.0 mm/hr 0.00 in0.0 mm
12:09 AM 72.3°F22.4°C 69.2°F20.7°C 90% Calm Calm -- 29.88 in1011.9 mb 0.00 in0.0 mm 0.00 in/hr0.0 mm/hr 0.00 in0.0 mm
12:11 AM 72.3°F22.4°C 69.2°F20.7°C 90% Calm Calm -- 29.88 in1011.9 mb 0.00 in0.0 mm 0.00 in/hr0.0 mm/hr 0.00 in0.0 mm
12:13 AM 72.3°F22.4°C 69.2°F20.7°C 90% Calm Calm -- 29.88 in1011.9 mb 0.00 in0.0 mm 0.00 in/hr0.0 mm/hr 0.00 in0.0 mm
12:15 AM 72.3°F22.4°C 69.2°F20.7°C 90% Calm Calm -- 29.88 in1011.9 mb 0.00 in0.0 mm 0.00 in/hr0.0 mm/hr 0.00 in0.0 mm
12:17 AM 72.3°F22.4°C 69.2°F20.7°C 90% Calm Calm -- 29.88 in1011.9 mb 0.00 in0.0 mm 0.00 in/hr0.0 mm/hr 0.00 in0.0 mm
12:19 AM 72.3°F22.4°C 69.2°F20.7°C 90% Calm Calm -- 29.88 in1011.9 mb 0.00 in0.0 mm 0.00 in/hr0.0 mm/hr 0.00 in0.0 mm
12:21 AM 72.3°F22.4°C 69.2°F20.7°C 90% Calm Calm -- 29.88 in1011.9 mb 0.00 in0.0 mm 0.00 in/hr0.0 mm/hr 0.00 in0.0 mm
12:23 AM 72.3°F22.4°C 69.2°F20.7°C 90% Calm Calm -- 29.88 in1011.9 mb 0.00 in0.0 mm 0.00 in/hr0.0 mm/hr 0.00 in0.0 mm
12:25 AM 72.3°F22.4°C 69.2°F20.7°C 90% Calm Calm -- 29.88 in1011.9 mb 0.00 in0.0 mm 0.00 in/hr0.0 mm/hr 0.00 in0.0 mm
12:27 AM 72.3°F22.4°C 69.2°F20.7°C 90% Calm Calm -- 29.88 in1011.9 mb 0.00 in0.0 mm 0.00 in/hr0.0 mm/hr 0.00 in0.0 mm
12:29 AM 72.3°F22.4°C 69.2°F20.7°C 90% Calm Calm -- 29.88 in1011.9 mb 0.00 in0.0 mm 0.00 in/hr0.0 mm/hr 0.00 in0.0 mm
12:31 AM 72.1°F22.3°C 69.0°F20.6°C 90% Calm Calm -- 29.88 in1011.9 mb 0.00 in0.0 mm 0.00 in/hr0.0 mm/hr 0.00 in0.0 mm
12:33 AM 72.1°F22.3°C 69.0°F20.6°C 90% Calm Calm -- 29.88 in1011.9 mb 0.00 in0.0 mm 0.00 in/hr0.0 mm/hr 0.00 in0.0 mm
12:35 AM 72.1°F22.3°C 69.0°F20.6°C 90% Calm Calm -- 29.88 in1011.9 mb 0.00 in0.0 mm 0.00 in/hr0.0 mm/hr 0.00 in0.0 mm
12:37 AM 72.1°F22.3°C 69.0°F20.6°C 90% Calm Calm -- 29.87 in1011.5 mb 0.00 in0.0 mm 0.00 in/hr0.0 mm/hr 0.00 in0.0 mm
12:39 AM 72.1°F22.3°C 69.0°F20.6°C 90% Calm Calm -- 29.87 in1011.5 mb 0.00 in0.0 mm 0.00 in/hr0.0 mm/hr 0.00 in0.0 mm
12:41 AM 72.1°F22.3°C 69.0°F20.6°C 90% Calm Calm -- 29.87 in1011.5 mb 0.00 in0.0 mm 0.00 in/hr0.0 mm/hr 0.00 in0.0 mm
12:43 AM 72.1°F22.3°C 69.0°F20.6°C 90% Calm Calm -- 29.87 in1011.5 mb 0.00 in0.0 mm 0.00 in/hr0.0 mm/hr 0.00 in0.0 mm
12:45 AM 72.1°F22.3°C 69.0°F20.6°C 90% Calm Calm -- 29.87 in1011.5 mb 0.00 in0.0 mm 0.00 in/hr0.0 mm/hr 0.00 in0.0 mm
12:47 AM 72.1°F22.3°C 69.0°F20.6°C 90% Calm Calm -- 29.87 in1011.5 mb 0.00 in0.0 mm 0.00 in/hr0.0 mm/hr 0.00 in0.0 mm
12:49 AM 72.0°F22.2°C 68.9°F20.5°C 90% Calm Calm -- 29.87 in1011.5 mb 0.00 in0.0 mm 0.00 in/hr0.0 mm/hr 0.00 in0.0 mm
12:51 AM 72.0°F22.2°C 68.9°F20.5°C 90% Calm Calm -- 29.86 in1011.2 mb 0.00 in0.0 mm 0.00 in/hr0.0 mm/hr 0.00 in0.0 mm
12:53 AM 72.0°F22.2°C 68.9°F20.5°C 90% Calm Calm -- 29.86 in1011.2 mb 0.00 in0.0 mm 0.00 in/hr0.0 mm/hr 0.00 in0.0 mm
12:55 AM 72.0°F22.2°C 69.2°F20.7°C 91% Calm Calm -- 29.86 in1011.2 mb 0.00 in0.0 mm 0.00 in/hr0.0 mm/hr 0.00 in0.0 mm
12:57 AM 72.0°F22.2°C 69.2°F20.7°C 91% Calm Calm -- 29.86 in1011.2 mb 0.00 in0.0 mm 0.00 in/hr0.0 mm/hr 0.00 in0.0 mm
12:59 AM 72.0°F22.2°C 69.2°F20.7°C 91% Calm Calm -- 29.86 in1011.2 mb 0.00 in0.0 mm 0.00 in/hr0.0 mm/hr 0.00 in0.0 mm
01:01 AM 72.0°F22.2°C 69.2°F20.7°C 91% Calm Calm -- 29.86 in1011.2 mb 0.00 in0.0 mm 0.00 in/hr0.0 mm/hr 0.00 in0.0 mm
01:03 AM 72.0°F22.2°C 69.2°F20.7°C 91% Calm Calm -- 29.86 in1011.2 mb 0.00 in0.0 mm 0.00 in/hr0.0 mm/hr 0.00 in0.0 mm
01:05 AM 72.0°F22.2°C 69.2°F20.7°C 91% Calm Calm -- 29.86 in1011.2 mb 0.00 in0.0 mm 0.00 in/hr0.0 mm/hr 0.00 in0.0 mm
01:07 AM 72.0°F22.2°C 69.2°F20.7°C 91% Calm Calm -- 29.86 in1011.2 mb 0.00 in0.0 mm 0.00 in/hr0.0 mm/hr 0.00 in0.0 mm
01:09 AM 72.0°F22.2°C 69.2°F20.7°C 91% Calm Calm -- 29.86 in1011.2 mb 0.00 in0.0 mm 0.00 in/hr0.0 mm/hr 0.00 in0.0 mm
01:11 AM 72.0°F22.2°C 69.2°F20.7°C 91% Calm Calm -- 29.85 in1010.8 mb 0.00 in0.0 mm 0.00 in/hr0.0 mm/hr 0.00 in0.0 mm
01:13 AM 72.0°F22.2°C 69.2°F20.7°C 91% Calm Calm -- 29.85 in1010.8 mb 0.00 in0.0 mm 0.00 in/hr0.0 mm/hr 0.02 in0.5 mm
01:15 AM 72.0°F22.2°C 69.2°F20.7°C 91% Calm Calm -- 29.85 in1010.8 mb 0.02 in0.5 mm 0.60 in/hr15.2 mm/hr 0.02 in0.5 mm
01:17 AM 72.0°F22.2°C 69.2°F20.7°C 91% Calm Calm -- 29.85 in1010.8 mb 0.02 in0.5 mm 0.00 in/hr0.0 mm/hr 0.02 in0.5 mm
01:19 AM 72.0°F22.2°C 69.2°F20.7°C 91% Calm Calm -- 29.86 in1011.2 mb 0.02 in0.5 mm 0.00 in/hr0.0 mm/hr 0.02 in0.5 mm
01:21 AM 72.0°F22.2°C 69.2°F20.7°C 91% Calm Calm -- 29.84 in1010.5 mb 0.02 in0.5 mm 0.00 in/hr0.0 mm/hr 0.02 in0.5 mm
01:23 AM 72.0°F22.2°C 69.2°F20.7°C 91% Calm Calm -- 29.85 in1010.8 mb 0.02 in0.5 mm 0.00 in/hr0.0 mm/hr 0.02 in0.5 mm
01:25 AM 71.8°F22.1°C 69.0°F20.6°C 91% Calm Calm -- 29.84 in1010.5 mb 0.02 in0.5 mm 0.00 in/hr0.0 mm/hr 0.02 in0.5 mm
01:27 AM 72.0°F22.2°C 69.2°F20.7°C 91% Calm Calm -- 29.84 in1010.5 mb 0.02 in0.5 mm 0.00 in/hr0.0 mm/hr 0.02 in0.5 mm
01:29 AM 72.0°F22.2°C 69.2°F20.7°C 91% Calm Calm -- 29.84 in1010.5 mb 0.02 in0.5 mm 0.00 in/hr0.0 mm/hr 0.02 in0.5 mm
01:31 AM 72.0°F22.2°C 69.2°F20.7°C 91% Calm Calm -- 29.84 in1010.5 mb 0.02 in0.5 mm 0.00 in/hr0.0 mm/hr 0.02 in0.5 mm
01:33 AM 71.8°F22.1°C 69.0°F20.6°C 91% Calm Calm -- 29.85 in1010.8 mb 0.02 in0.5 mm 0.00 in/hr0.0 mm/hr 0.02 in0.5 mm
01:35 AM 71.8°F22.1°C 69.0°F20.6°C 91% Calm Calm -- 29.85 in1010.8 mb 0.02 in0.5 mm 0.00 in/hr0.0 mm/hr 0.02 in0.5 mm
01:37 AM 71.8°F22.1°C 69.0°F20.6°C 91% Calm Calm -- 29.84 in1010.5 mb 0.02 in0.5 mm 0.00 in/hr0.0 mm/hr 0.02 in0.5 mm
01:39 AM 72.0°F22.2°C 69.2°F20.7°C 91% Calm Calm -- 29.84 in1010.5 mb 0.02 in0.5 mm 0.00 in/hr0.0 mm/hr 0.02 in0.5 mm
01:41 AM 71.8°F22.1°C 69.0°F20.6°C 91% Calm Calm -- 29.85 in1010.8 mb 0.02 in0.5 mm 0.00 in/hr0.0 mm/hr 0.02 in0.5 mm
01:43 AM 72.0°F22.2°C 69.2°F20.7°C 91% Calm Calm -- 29.84 in1010.5 mb 0.02 in0.5 mm 0.00 in/hr0.0 mm/hr 0.02 in0.5 mm
01:45 AM 71.8°F22.1°C 69.0°F20.6°C 91% Calm Calm -- 29.84 in1010.5 mb 0.02 in0.5 mm 0.00 in/hr0.0 mm/hr 0.04 in1.0 mm
01:47 AM 71.8°F22.1°C 69.0°F20.6°C 91% Calm Calm -- 29.84 in1010.5 mb 0.04 in1.0 mm 0.60 in/hr15.2 mm/hr 0.04 in1.0 mm
01:49 AM 72.0°F22.2°C 69.2°F20.7°C 91% Calm Calm -- 29.84 in1010.5 mb 0.04 in1.0 mm 0.00 in/hr0.0 mm/hr 0.04 in1.0 mm
01:51 AM 72.0°F22.2°C 69.2°F20.7°C 91% Calm Calm -- 29.83 in1010.2 mb 0.06 in1.5 mm 0.60 in/hr15.2 mm/hr 0.06 in1.5 mm
01:53 AM 71.8°F22.1°C 69.0°F20.6°C 91% Calm Calm -- 29.84 in1010.5 mb 0.06 in1.5 mm 0.00 in/hr0.0 mm/hr 0.06 in1.5 mm
01:55 AM 71.8°F22.1°C 69.0°F20.6°C 91% Calm Calm -- 29.84 in1010.5 mb 0.10 in2.5 mm 1.20 in/hr30.5 mm/hr 0.10 in2.5 mm
01:57 AM 71.8°F22.1°C 69.0°F20.6°C 91% Calm Calm -- 29.84 in1010.5 mb 0.14 in3.6 mm 1.20 in/hr30.5 mm/hr 0.14 in3.6 mm
01:59 AM 71.8°F22.1°C 69.0°F20.6°C 91% Calm Calm -- 29.84 in1010.5 mb 0.16 in4.1 mm 0.60 in/hr15.2 mm/hr 0.16 in4.1 mm
02:01 AM 71.8°F22.1°C 69.0°F20.6°C 91% Calm Calm -- 29.84 in1010.5 mb 0.20 in5.1 mm 0.04 in/hr1.0 mm/hr 0.20 in5.1 mm
02:03 AM 71.8°F22.1°C 69.0°F20.6°C 91% Calm Calm -- 29.84 in1010.5 mb 0.22 in5.6 mm 0.60 in/hr15.2 mm/hr 0.22 in5.6 mm
02:05 AM 71.8°F22.1°C 69.0°F20.6°C 91% Calm Calm -- 29.84 in1010.5 mb 0.26 in6.6 mm 1.20 in/hr30.5 mm/hr 0.26 in6.6 mm
02:07 AM 71.8°F22.1°C 69.0°F20.6°C 91% Calm Calm -- 29.83 in1010.2 mb 0.29 in7.4 mm 0.90 in/hr22.9 mm/hr 0.29 in7.4 mm
02:09 AM 71.8°F22.1°C 69.0°F20.6°C 91% 1.6 mph N2.6 kmh N 1.6 mph2.6 kmh 29.84 in1010.5 mb 0.29 in7.4 mm 0.00 in/hr0.0 mm/hr 0.31 in7.9 mm
02:11 AM 71.8°F22.1°C 69.0°F20.6°C 91% Calm Calm 1.6 mph2.6 kmh 29.83 in1010.2 mb 0.31 in7.9 mm 0.60 in/hr15.2 mm/hr 0.33 in8.4 mm
02:13 AM 71.8°F22.1°C 69.0°F20.6°C 91% Calm Calm 1.6 mph2.6 kmh 29.83 in1010.2 mb 0.33 in8.4 mm 0.60 in/hr15.2 mm/hr 0.35 in8.9 mm
02:15 AM 71.8°F22.1°C 69.0°F20.6°C 91% Calm Calm 1.6 mph2.6 kmh 29.84 in1010.5 mb 0.33 in8.4 mm 0.00 in/hr0.0 mm/hr 0.35 in8.9 mm
02:17 AM 71.8°F22.1°C 69.0°F20.6°C 91% Calm Calm 1.6 mph2.6 kmh 29.84 in1010.5 mb 0.33 in8.4 mm 0.00 in/hr0.0 mm/hr 0.35 in8.9 mm
02:19 AM 71.8°F22.1°C 69.0°F20.6°C 91% Calm Calm 1.6 mph2.6 kmh 29.83 in1010.2 mb 0.35 in8.9 mm 0.60 in/hr15.2 mm/hr 0.37 in9.4 mm
02:21 AM 71.8°F22.1°C 69.0°F20.6°C 91% Calm Calm -- 29.83 in1010.2 mb 0.35 in8.9 mm 0.00 in/hr0.0 mm/hr 0.37 in9.4 mm
02:23 AM 71.8°F22.1°C 69.0°F20.6°C 91% Calm Calm -- 29.83 in1010.2 mb 0.37 in9.4 mm 0.60 in/hr15.2 mm/hr 0.39 in9.9 mm
02:25 AM 71.6°F22.0°C 68.8°F20.4°C 91% 3.8 mph SSE6.1 kmh SSE 3.8 mph6.1 kmh 29.83 in1010.2 mb 0.37 in9.4 mm 0.00 in/hr0.0 mm/hr 0.39 in9.9 mm
02:27 AM 71.6°F22.0°C 68.8°F20.4°C 91% Calm Calm 3.8 mph6.1 kmh 29.83 in1010.2 mb 0.37 in9.4 mm 0.00 in/hr0.0 mm/hr 0.39 in9.9 mm
02:29 AM 71.4°F21.9°C 68.7°F20.4°C 91% Calm Calm 3.8 mph6.1 kmh 29.83 in1010.2 mb 0.37 in9.4 mm 0.00 in/hr0.0 mm/hr 0.39 in9.9 mm
02:31 AM 71.4°F21.9°C 68.7°F20.4°C 91% Calm Calm 3.8 mph6.1 kmh 29.83 in1010.2 mb 0.37 in9.4 mm 0.00 in/hr0.0 mm/hr 0.39 in9.9 mm
02:33 AM 71.4°F21.9°C 68.7°F20.4°C 91% Calm Calm 3.8 mph6.1 kmh 29.83 in1010.2 mb 0.37 in9.4 mm 0.00 in/hr0.0 mm/hr 0.39 in9.9 mm
02:35 AM 71.4°F21.9°C 68.7°F20.4°C 91% Calm Calm 3.8 mph6.1 kmh 29.83 in1010.2 mb 0.37 in9.4 mm 0.00 in/hr0.0 mm/hr 0.39 in9.9 mm
02:37 AM 71.4°F21.9°C 68.7°F20.4°C 91% Calm Calm -- 29.83 in1010.2 mb 0.37 in9.4 mm 0.00 in/hr0.0 mm/hr 0.39 in9.9 mm
02:39 AM 71.4°F21.9°C 68.7°F20.4°C 91% Calm Calm -- 29.83 in1010.2 mb 0.37 in9.4 mm 0.00 in/hr0.0 mm/hr 0.41 in10.4 mm
02:41 AM 71.4°F21.9°C 68.7°F20.4°C 91% Calm Calm -- 29.83 in1010.2 mb 0.39 in9.9 mm 0.60 in/hr15.2 mm/hr 0.41 in10.4 mm
02:43 AM 71.4°F21.9°C 68.7°F20.4°C 91% Calm Calm -- 29.83 in1010.2 mb 0.39 in9.9 mm 0.00 in/hr0.0 mm/hr 0.41 in10.4 mm
02:45 AM 71.6°F22.0°C 68.8°F20.4°C 91% 0.2 mph ENE0.3 kmh ENE 0.2 mph0.3 kmh 29.83 in1010.2 mb 0.37 in9.4 mm 0.00 in/hr0.0 mm/hr 0.41 in10.4 mm
02:47 AM 71.6°F22.0°C 68.8°F20.4°C 91% 0.2 mph ENE0.3 kmh ENE 0.2 mph0.3 kmh 29.82 in1009.8 mb 0.37 in9.4 mm 0.00 in/hr0.0 mm/hr 0.41 in10.4 mm
02:49 AM 71.6°F22.0°C 68.8°F20.4°C 91% 0.2 mph ENE0.3 kmh ENE 0.2 mph0.3 kmh 29.82 in1009.8 mb 99.29 in2522.0 mm 2967.60 in/hr75377.0 mm/hr 0.41 in10.4 mm
02:51 AM 71.6°F22.0°C 68.8°F20.4°C 91% Calm Calm 0.2 mph0.3 kmh 29.83 in1010.2 mb 0.35 in8.9 mm 0.00 in/hr0.0 mm/hr 0.41 in10.4 mm
02:53 AM 71.6°F22.0°C 68.8°F20.4°C 91% Calm Calm 0.2 mph0.3 kmh 29.82 in1009.8 mb 0.35 in8.9 mm 0.00 in/hr0.0 mm/hr 0.41 in10.4 mm
02:55 AM 71.6°F22.0°C 68.8°F20.4°C 91% Calm Calm 0.2 mph0.3 kmh 29.82 in1009.8 mb 0.31 in7.9 mm 0.00 in/hr0.0 mm/hr 0.41 in10.4 mm
02:57 AM 71.6°F22.0°C 68.8°F20.4°C 91% Calm Calm 0.2 mph0.3 kmh 29.82 in1009.8 mb 0.27 in6.9 mm 0.00 in/hr0.0 mm/hr 0.41 in10.4 mm
02:59 AM 71.6°F22.0°C 68.8°F20.4°C 91% Calm Calm 0.2 mph0.3 kmh 29.82 in1009.8 mb 0.24 in6.1 mm 0.00 in/hr0.0 mm/hr 0.41 in10.4 mm
03:01 AM 71.6°F22.0°C 69.2°F20.7°C 92% Calm Calm -- 29.82 in1009.8 mb 0.20 in5.1 mm 0.00 in/hr0.0 mm/hr 0.41 in10.4 mm
03:03 AM 71.6°F22.0°C 68.8°F20.4°C 91% Calm Calm -- 29.82 in1009.8 mb 0.18 in4.6 mm 0.00 in/hr0.0 mm/hr 0.41 in10.4 mm
03:05 AM 71.6°F22.0°C 68.8°F20.4°C 91% Calm Calm -- 29.82 in1009.8 mb 0.14 in3.6 mm 0.00 in/hr0.0 mm/hr 0.41 in10.4 mm
03:07 AM 71.8°F22.1°C 69.3°F20.7°C 92% Calm Calm -- 29.82 in1009.8 mb 0.12 in3.0 mm 0.00 in/hr0.0 mm/hr 0.41 in10.4 mm
03:09 AM 71.8°F22.1°C 69.0°F20.6°C 91% 3.6 mph SE5.8 kmh SE 3.6 mph5.8 kmh 29.82 in1009.8 mb 0.12 in3.0 mm 0.00 in/hr0.0 mm/hr 0.41 in10.4 mm
03:11 AM 71.6°F22.0°C 68.8°F20.4°C 91% Calm Calm 3.6 mph5.8 kmh 29.82 in1009.8 mb 0.10 in2.5 mm 0.00 in/hr0.0 mm/hr 0.41 in10.4 mm
03:13 AM 71.6°F22.0°C 68.8°F20.4°C 91% 2.9 mph SE4.7 kmh SE 3.6 mph5.8 kmh 29.82 in1009.8 mb 0.08 in2.0 mm 0.00 in/hr0.0 mm/hr 0.41 in10.4 mm
03:15 AM 71.6°F22.0°C 68.8°F20.4°C 91% 1.1 mph SE1.8 kmh SE 3.6 mph5.8 kmh 29.83 in1010.2 mb 0.06 in1.5 mm 0.00 in/hr0.0 mm/hr 0.41 in10.4 mm
03:17 AM 71.6°F22.0°C 68.8°F20.4°C 91% 1.1 mph SE1.8 kmh SE 3.6 mph5.8 kmh 29.82 in1009.8 mb 0.04 in1.0 mm 0.00 in/hr0.0 mm/hr 0.41 in10.4 mm
03:19 AM 71.4°F21.9°C 68.7°F20.4°C 91% Calm Calm 3.6 mph5.8 kmh 29.82 in1009.8 mb 0.04 in1.0 mm 0.00 in/hr0.0 mm/hr 0.41 in10.4 mm
03:21 AM 71.4°F21.9°C 68.7°F20.4°C 91% Calm Calm 2.9 mph4.7 kmh 29.82 in1009.8 mb 0.04 in1.0 mm 0.00 in/hr0.0 mm/hr 0.41 in10.4 mm
03:23 AM 71.4°F21.9°C 68.7°F20.4°C 91% Calm Calm 2.9 mph4.7 kmh 29.82 in1009.8 mb 0.02 in0.5 mm 0.00 in/hr0.0 mm/hr 0.41 in10.4 mm
03:25 AM 71.4°F21.9°C 68.7°F20.4°C 91% Calm Calm 1.1 mph1.8 kmh 29.82 in1009.8 mb 0.02 in0.5 mm 0.00 in/hr0.0 mm/hr 0.41 in10.4 mm
03:27 AM 71.4°F21.9°C 68.7°F20.4°C 91% Calm Calm -- 29.82 in1009.8 mb 0.02 in0.5 mm 0.00 in/hr0.0 mm/hr 0.41 in10.4 mm
03:29 AM 71.4°F21.9°C 68.7°F20.4°C 91% Calm Calm -- 29.82 in1009.8 mb 0.02 in0.5 mm 0.00 in/hr0.0 mm/hr 0.41 in10.4 mm
03:31 AM 71.4°F21.9°C 68.7°F20.4°C 91% Calm Calm -- 29.82 in1009.8 mb 0.02 in0.5 mm 0.00 in/hr0.0 mm/hr 0.41 in10.4 mm
03:33 AM 71.4°F21.9°C 68.7°F20.4°C 91% Calm Calm -- 29.82 in1009.8 mb 0.02 in0.5 mm 0.00 in/hr0.0 mm/hr 0.41 in10.4 mm
03:35 AM 71.4°F21.9°C 68.7°F20.4°C 91% Calm Calm -- 29.83 in1010.2 mb 0.02 in0.5 mm 0.00 in/hr0.0 mm/hr 0.41 in10.4 mm
03:37 AM 71.4°F21.9°C 68.7°F20.4°C 91% 1.8 mph NE2.9 kmh NE 1.8 mph2.9 kmh 29.83 in1010.2 mb 0.02 in0.5 mm 0.00 in/hr0.0 mm/hr 0.41 in10.4 mm
03:39 AM 71.4°F21.9°C 68.7°F20.4°C 91% 2.5 mph NE4.0 kmh NE 2.5 mph4.0 kmh 29.83 in1010.2 mb 0.02 in0.5 mm 0.00 in/hr0.0 mm/hr 0.43 in10.9 mm
03:41 AM 71.4°F21.9°C 68.7°F20.4°C 91% Calm Calm 2.5 mph4.0 kmh 29.83 in1010.2 mb 0.02 in0.5 mm 0.00 in/hr0.0 mm/hr 0.45 in11.4 mm
03:43 AM 71.4°F21.9°C 68.7°F20.4°C 91% Calm Calm 2.5 mph4.0 kmh 29.83 in1010.2 mb 0.04 in1.0 mm 0.60 in/hr15.2 mm/hr 0.47 in11.9 mm
03:45 AM 71.4°F21.9°C 68.7°F20.4°C 91% 1.1 mph NE1.8 kmh NE 2.5 mph4.0 kmh 29.83 in1010.2 mb 0.06 in1.5 mm 0.60 in/hr15.2 mm/hr 0.49 in12.4 mm
03:47 AM 71.4°F21.9°C 68.7°F20.4°C 91% 1.1 mph NE1.8 kmh NE 2.5 mph4.0 kmh 29.83 in1010.2 mb 0.08 in2.0 mm 0.60 in/hr15.2 mm/hr 0.49 in12.4 mm
03:49 AM 71.4°F21.9°C 68.7°F20.4°C 91% Calm Calm 2.5 mph4.0 kmh 29.83 in1010.2 mb 0.10 in2.5 mm 0.60 in/hr15.2 mm/hr 0.51 in13.0 mm
03:51 AM 71.4°F21.9°C 68.7°F20.4°C 91% Calm Calm 1.1 mph1.8 kmh 29.83 in1010.2 mb 0.10 in2.5 mm 0.00 in/hr0.0 mm/hr 0.51 in13.0 mm
03:53 AM 71.4°F21.9°C 68.7°F20.4°C 91% Calm Calm 1.1 mph1.8 kmh 29.83 in1010.2 mb 0.12 in3.0 mm 0.60 in/hr15.2 mm/hr 0.53 in13.5 mm
03:55 AM 71.2°F21.8°C 68.5°F20.3°C 91% Calm Calm 1.1 mph1.8 kmh 29.83 in1010.2 mb 0.12 in3.0 mm 0.00 in/hr0.0 mm/hr 0.53 in13.5 mm
03:57 AM 71.2°F21.8°C 68.5°F20.3°C 91% Calm Calm 1.1 mph1.8 kmh 29.83 in1010.2 mb 0.14 in3.6 mm 0.60 in/hr15.2 mm/hr 0.55 in14.0 mm
03:59 AM 71.2°F21.8°C 68.5°F20.3°C 91% 4.0 mph ENE6.4 kmh ENE 4.0 mph6.4 kmh 29.82 in1009.8 mb 0.14 in3.6 mm 0.00 in/hr0.0 mm/hr 0.55 in14.0 mm
04:01 AM 71.2°F21.8°C 68.5°F20.3°C 91% 4.5 mph E7.2 kmh E 4.5 mph7.2 kmh 29.82 in1009.8 mb 0.14 in3.6 mm 0.00 in/hr0.0 mm/hr 0.55 in14.0 mm
04:03 AM 71.2°F21.8°C 68.5°F20.3°C 91% Calm Calm 4.5 mph7.2 kmh 29.82 in1009.8 mb 0.14 in3.6 mm 0.00 in/hr0.0 mm/hr 0.55 in14.0 mm
04:05 AM 71.2°F21.8°C 68.5°F20.3°C 91% Calm Calm 4.5 mph7.2 kmh 29.83 in1010.2 mb 0.14 in3.6 mm 0.00 in/hr0.0 mm/hr 0.55 in14.0 mm
04:07 AM 71.2°F21.8°C 68.5°F20.3°C 91% Calm Calm 4.5 mph7.2 kmh 29.83 in1010.2 mb 0.14 in3.6 mm 0.00 in/hr0.0 mm/hr 0.55 in14.0 mm
04:09 AM 71.2°F21.8°C 68.5°F20.3°C 91% Calm Calm 4.5 mph7.2 kmh 29.83 in1010.2 mb 0.14 in3.6 mm 0.00 in/hr0.0 mm/hr 0.55 in14.0 mm
04:11 AM 71.2°F21.8°C 68.5°F20.3°C 91% Calm Calm 4.5 mph7.2 kmh 29.83 in1010.2 mb 0.14 in3.6 mm 0.00 in/hr0.0 mm/hr 0.55 in14.0 mm
04:13 AM 71.1°F21.7°C 68.3°F20.2°C 91% 2.0 mph N3.2 kmh N 2.0 mph3.2 kmh 29.83 in1010.2 mb 0.14 in3.6 mm 0.00 in/hr0.0 mm/hr 0.55 in14.0 mm
04:15 AM 71.1°F21.7°C 68.3°F20.2°C 91% Calm Calm 2.0 mph3.2 kmh 29.83 in1010.2 mb 0.14 in3.6 mm 0.00 in/hr0.0 mm/hr 0.55 in14.0 mm
04:17 AM 71.1°F21.7°C 68.3°F20.2°C 91% Calm Calm 2.0 mph3.2 kmh 29.83 in1010.2 mb 0.14 in3.6 mm 0.00 in/hr0.0 mm/hr 0.55 in14.0 mm
04:19 AM 71.1°F21.7°C 68.3°F20.2°C 91% Calm Calm 2.0 mph3.2 kmh 29.83 in1010.2 mb 0.14 in3.6 mm 0.00 in/hr0.0 mm/hr 0.55 in14.0 mm
04:21 AM 70.9°F21.6°C 68.1°F20.1°C 91% Calm Calm 2.0 mph3.2 kmh 29.83 in1010.2 mb 0.14 in3.6 mm 0.00 in/hr0.0 mm/hr 0.55 in14.0 mm
04:23 AM 71.1°F21.7°C 68.3°F20.2°C 91% Calm Calm 2.0 mph3.2 kmh 29.83 in1010.2 mb 0.14 in3.6 mm 0.00 in/hr0.0 mm/hr 0.55 in14.0 mm
04:25 AM 71.1°F21.7°C 68.3°F20.2°C 91% Calm Calm -- 29.83 in1010.2 mb 0.14 in3.6 mm 0.00 in/hr0.0 mm/hr 0.55 in14.0 mm
04:27 AM 70.9°F21.6°C 68.1°F20.1°C 91% Calm Calm -- 29.83 in1010.2 mb 0.14 in3.6 mm 0.00 in/hr0.0 mm/hr 0.55 in14.0 mm
04:29 AM 70.9°F21.6°C 68.1°F20.1°C 91% Calm Calm -- 29.83 in1010.2 mb 0.14 in3.6 mm 0.00 in/hr0.0 mm/hr 0.55 in14.0 mm
04:31 AM 71.1°F21.7°C 68.3°F20.2°C 91% Calm Calm -- 29.83 in1010.2 mb 0.14 in3.6 mm 0.00 in/hr0.0 mm/hr 0.55 in14.0 mm
04:33 AM 71.1°F21.7°C 68.3°F20.2°C 91% Calm Calm -- 29.83 in1010.2 mb 0.14 in3.6 mm 0.00 in/hr0.0 mm/hr 0.55 in14.0 mm
04:35 AM 71.1°F21.7°C 68.3°F20.2°C 91% Calm Calm -- 29.83 in1010.2 mb 0.14 in3.6 mm 0.00 in/hr0.0 mm/hr 0.55 in14.0 mm
04:37 AM 71.1°F21.7°C 68.3°F20.2°C 91% Calm Calm -- 29.83 in1010.2 mb 0.14 in3.6 mm 0.00 in/hr0.0 mm/hr 0.55 in14.0 mm
04:39 AM 71.1°F21.7°C 68.6°F20.3°C 92% Calm Calm -- 29.84 in1010.5 mb 0.12 in3.0 mm 0.00 in/hr0.0 mm/hr 0.55 in14.0 mm
04:41 AM 71.1°F21.7°C 68.6°F20.3°C 92% Calm Calm -- 29.84 in1010.5 mb 0.10 in2.5 mm 0.00 in/hr0.0 mm/hr 0.55 in14.0 mm
04:43 AM 71.1°F21.7°C 68.6°F20.3°C 92% Calm Calm -- 29.84 in1010.5 mb 0.08 in2.0 mm 0.00 in/hr0.0 mm/hr 0.55 in14.0 mm
04:45 AM 71.1°F21.7°C 68.6°F20.3°C 92% Calm Calm -- 29.84 in1010.5 mb 0.06 in1.5 mm 0.00 in/hr0.0 mm/hr 0.55 in14.0 mm
04:47 AM 71.2°F21.8°C 68.8°F20.4°C 92% Calm Calm -- 29.84 in1010.5 mb 0.04 in1.0 mm 0.00 in/hr0.0 mm/hr 0.55 in14.0 mm
04:49 AM 71.2°F21.8°C 68.8°F20.4°C 92% 2.9 mph ENE4.7 kmh ENE 2.9 mph4.7 kmh 29.85 in1010.8 mb 0.04 in1.0 mm 0.00 in/hr0.0 mm/hr 0.55 in14.0 mm
04:51 AM 71.2°F21.8°C 68.8°F20.4°C 92% 2.9 mph ENE4.7 kmh ENE 2.9 mph4.7 kmh 29.85 in1010.8 mb 0.02 in0.5 mm 0.00 in/hr0.0 mm/hr 0.55 in14.0 mm
04:53 AM 71.1°F21.7°C 68.6°F20.3°C 92% 4.0 mph NE6.4 kmh NE 4.0 mph6.4 kmh 29.84 in1010.5 mb 0.02 in0.5 mm 0.00 in/hr0.0 mm/hr 0.55 in14.0 mm
04:55 AM 70.9°F21.6°C 68.4°F20.2°C 92% 1.6 mph NE2.6 kmh NE 4.0 mph6.4 kmh 29.84 in1010.5 mb 0.04 in1.0 mm 0.60 in/hr15.2 mm/hr 0.57 in14.5 mm
04:57 AM 71.1°F21.7°C 68.6°F20.3°C 92% 2.0 mph NE3.2 kmh NE 4.0 mph6.4 kmh 29.84 in1010.5 mb 0.04 in1.0 mm 0.00 in/hr0.0 mm/hr 0.59 in15.0 mm
04:59 AM 70.9°F21.6°C 68.4°F20.2°C 92% Calm Calm 4.0 mph6.4 kmh 29.84 in1010.5 mb 0.04 in1.0 mm 0.00 in/hr0.0 mm/hr 0.59 in15.0 mm
05:01 AM 70.9°F21.6°C 68.4°F20.2°C 92% 2.5 mph NE4.0 kmh NE 4.0 mph6.4 kmh 29.84 in1010.5 mb 0.04 in1.0 mm 0.00 in/hr0.0 mm/hr 0.59 in15.0 mm
05:03 AM 70.9°F21.6°C 68.4°F20.2°C 92% 2.5 mph NE4.0 kmh NE 4.0 mph6.4 kmh 29.84 in1010.5 mb 0.04 in1.0 mm 0.00 in/hr0.0 mm/hr 0.59 in15.0 mm
05:05 AM 70.9°F21.6°C 68.4°F20.2°C 92% Calm Calm 2.5 mph4.0 kmh 29.84 in1010.5 mb 0.06 in1.5 mm 0.60 in/hr15.2 mm/hr 0.61 in15.5 mm
05:07 AM 70.7°F21.5°C 68.3°F20.2°C 92% Calm Calm 2.5 mph4.0 kmh 29.84 in1010.5 mb 0.06 in1.5 mm 0.00 in/hr0.0 mm/hr 0.61 in15.5 mm
05:09 AM 70.7°F21.5°C 68.3°F20.2°C 92% Calm Calm 2.5 mph4.0 kmh 29.84 in1010.5 mb 0.06 in1.5 mm 0.00 in/hr0.0 mm/hr 0.61 in15.5 mm
05:11 AM 70.7°F21.5°C 68.3°F20.2°C 92% Calm Calm 2.5 mph4.0 kmh 29.84 in1010.5 mb 0.06 in1.5 mm 0.00 in/hr0.0 mm/hr 0.61 in15.5 mm
05:13 AM 70.7°F21.5°C 68.3°F20.2°C 92% Calm Calm 2.5 mph4.0 kmh 29.84 in1010.5 mb 0.06 in1.5 mm 0.00 in/hr0.0 mm/hr 0.63 in16.0 mm
05:15 AM 70.7°F21.5°C 68.3°F20.2°C 92% Calm Calm -- 29.85 in1010.8 mb 0.08 in2.0 mm 0.60 in/hr15.2 mm/hr 0.63 in16.0 mm
05:17 AM 70.7°F21.5°C 68.3°F20.2°C 92% Calm Calm -- 29.85 in1010.8 mb 0.08 in2.0 mm 0.00 in/hr0.0 mm/hr 0.63 in16.0 mm
05:19 AM 70.7°F21.5°C 68.3°F20.2°C 92% Calm Calm -- 29.85 in1010.8 mb 0.08 in2.0 mm 0.00 in/hr0.0 mm/hr 0.63 in16.0 mm
05:21 AM 70.5°F21.4°C 67.8°F19.9°C 91% Calm Calm -- 29.85 in1010.8 mb 0.08 in2.0 mm 0.00 in/hr0.0 mm/hr 0.63 in16.0 mm
05:23 AM 70.7°F21.5°C 68.3°F20.2°C 92% Calm Calm -- 29.85 in1010.8 mb 0.10 in2.5 mm 0.60 in/hr15.2 mm/hr 0.65 in16.5 mm
05:25 AM 70.5°F21.4°C 67.8°F19.9°C 91% Calm Calm -- 29.85 in1010.8 mb 0.10 in2.5 mm 0.00 in/hr0.0 mm/hr 0.65 in16.5 mm
05:27 AM 70.7°F21.5°C 68.3°F20.2°C 92% Calm Calm -- 29.85 in1010.8 mb 0.10 in2.5 mm 0.00 in/hr0.0 mm/hr 0.65 in16.5 mm
05:29 AM 70.7°F21.5°C 68.3°F20.2°C 92% Calm Calm -- 29.85 in1010.8 mb 0.10 in2.5 mm 0.00 in/hr0.0 mm/hr 0.65 in16.5 mm
05:31 AM 70.5°F21.4°C 67.8°F19.9°C 91% Calm Calm -- 29.85 in1010.8 mb 0.10 in2.5 mm 0.00 in/hr0.0 mm/hr 0.65 in16.5 mm
05:33 AM 70.5°F21.4°C 67.8°F19.9°C 91% Calm Calm -- 29.84 in1010.5 mb 0.10 in2.5 mm 0.00 in/hr0.0 mm/hr 0.65 in16.5 mm
05:35 AM 70.5°F21.4°C 67.8°F19.9°C 91% Calm Calm -- 29.85 in1010.8 mb 0.10 in2.5 mm 0.00 in/hr0.0 mm/hr 0.65 in16.5 mm
05:37 AM 70.5°F21.4°C 67.8°F19.9°C 91% Calm Calm -- 29.84 in1010.5 mb 0.10 in2.5 mm 0.00 in/hr0.0 mm/hr 0.65 in16.5 mm
05:39 AM 70.5°F21.4°C 67.8°F19.9°C 91% Calm Calm -- 29.84 in1010.5 mb 0.10 in2.5 mm 0.00 in/hr0.0 mm/hr 0.65 in16.5 mm
05:41 AM 70.5°F21.4°C 67.8°F19.9°C 91% Calm Calm -- 29.84 in1010.5 mb 0.10 in2.5 mm 0.00 in/hr0.0 mm/hr 0.65 in16.5 mm
05:43 AM 70.7°F21.5°C 68.3°F20.2°C 92% Calm Calm -- 29.84 in1010.5 mb 0.10 in2.5 mm 0.00 in/hr0.0 mm/hr 0.65 in16.5 mm
05:45 AM 70.5°F21.4°C 68.1°F20.1°C 91% Calm Calm -- 29.84 in1010.5 mb 0.10 in2.5 mm 0.00 in/hr0.0 mm/hr 0.65 in16.5 mm
05:47 AM 70.5°F21.4°C 67.8°F19.9°C 91% Calm Calm -- 29.84 in1010.5 mb 0.10 in2.5 mm 0.00 in/hr0.0 mm/hr 0.65 in16.5 mm
05:49 AM 70.5°F21.4°C 67.8°F19.9°C 91% Calm Calm -- 29.84 in1010.5 mb 0.10 in2.5 mm 0.00 in/hr0.0 mm/hr 0.65 in16.5 mm
05:51 AM 70.5°F21.4°C 67.8°F19.9°C 91% Calm Calm -- 29.84 in1010.5 mb 0.10 in2.5 mm 0.00 in/hr0.0 mm/hr 0.65 in16.5 mm
05:53 AM 70.5°F21.4°C 67.8°F19.9°C 91% Calm Calm -- 29.84 in1010.5 mb 0.10 in2.5 mm 0.00 in/hr0.0 mm/hr 0.65 in16.5 mm
05:55 AM 70.5°F21.4°C 67.8°F19.9°C 91% Calm Calm -- 29.84 in1010.5 mb 0.08 in2.0 mm 0.00 in/hr0.0 mm/hr 0.65 in16.5 mm
05:57 AM 70.5°F21.4°C 67.8°F19.9°C 91% Calm Calm -- 29.85 in1010.8 mb 0.06 in1.5 mm 0.00 in/hr0.0 mm/hr 0.65 in16.5 mm
05:59 AM 70.5°F21.4°C 68.1°F20.1°C 92% Calm Calm -- 29.85 in1010.8 mb 0.06 in1.5 mm 0.00 in/hr0.0 mm/hr 0.65 in16.5 mm
06:01 AM 70.5°F21.4°C 68.1°F20.1°C 92% Calm Calm -- 29.85 in1010.8 mb 0.06 in1.5 mm 0.00 in/hr0.0 mm/hr 0.65 in16.5 mm
06:03 AM 70.5°F21.4°C 68.1°F20.1°C 92% Calm Calm -- 29.85 in1010.8 mb 0.06 in1.5 mm 0.00 in/hr0.0 mm/hr 0.65 in16.5 mm
06:05 AM 70.5°F21.4°C 68.1°F20.1°C 92% Calm Calm -- 29.85 in1010.8 mb 0.06 in1.5 mm 0.00 in/hr0.0 mm/hr 0.67 in17.0 mm
06:07 AM 70.7°F21.5°C 68.3°F20.2°C 92% Calm Calm -- 29.85 in1010.8 mb 0.06 in1.5 mm 0.00 in/hr0.0 mm/hr 0.67 in17.0 mm
06:09 AM 70.5°F21.4°C 68.1°F20.1°C 92% Calm Calm -- 29.85 in1010.8 mb 0.06 in1.5 mm 0.00 in/hr0.0 mm/hr 0.67 in17.0 mm
06:11 AM 70.7°F21.5°C 68.3°F20.2°C 92% Calm Calm -- 29.85 in1010.8 mb 0.06 in1.5 mm 0.00 in/hr0.0 mm/hr 0.67 in17.0 mm
06:13 AM 70.7°F21.5°C 68.3°F20.2°C 92% Calm Calm -- 29.85 in1010.8 mb 0.04 in1.0 mm 0.00 in/hr0.0 mm/hr 0.67 in17.0 mm
06:15 AM 70.7°F21.5°C 68.3°F20.2°C 92% Calm Calm -- 29.85 in1010.8 mb 0.04 in1.0 mm 0.00 in/hr0.0 mm/hr 0.67 in17.0 mm
06:17 AM 70.7°F21.5°C 68.3°F20.2°C 92% Calm Calm -- 29.85 in1010.8 mb 0.04 in1.0 mm 0.00 in/hr0.0 mm/hr 0.67 in17.0 mm
06:19 AM 70.7°F21.5°C 68.3°F20.2°C 92% Calm Calm -- 29.85 in1010.8 mb 0.04 in1.0 mm 0.00 in/hr0.0 mm/hr 0.67 in17.0 mm
06:21 AM 70.7°F21.5°C 68.3°F20.2°C 92% Calm Calm -- 29.86 in1011.2 mb 0.02 in0.5 mm 0.00 in/hr0.0 mm/hr 0.67 in17.0 mm
06:23 AM 70.7°F21.5°C 68.3°F20.2°C 92% Calm Calm -- 29.86 in1011.2 mb 0.02 in0.5 mm 0.00 in/hr0.0 mm/hr 0.67 in17.0 mm
06:25 AM 70.7°F21.5°C 68.3°F20.2°C 92% Calm Calm -- 29.85 in1010.8 mb 0.02 in0.5 mm 0.00 in/hr0.0 mm/hr 0.67 in17.0 mm
06:27 AM 70.7°F21.5°C 68.3°F20.2°C 92% Calm Calm -- 29.86 in1011.2 mb 0.02 in0.5 mm 0.00 in/hr0.0 mm/hr 0.67 in17.0 mm
06:29 AM 70.7°F21.5°C 68.3°F20.2°C 92% Calm Calm -- 29.86 in1011.2 mb 0.02 in0.5 mm 0.00 in/hr0.0 mm/hr 0.67 in17.0 mm
06:31 AM 70.9°F21.6°C 68.4°F20.2°C 92% Calm Calm -- 29.86 in1011.2 mb 0.02 in0.5 mm 0.00 in/hr0.0 mm/hr 0.67 in17.0 mm
06:33 AM 70.9°F21.6°C 68.4°F20.2°C 92% Calm Calm -- 29.86 in1011.2 mb 0.02 in0.5 mm 0.00 in/hr0.0 mm/hr 0.67 in17.0 mm
06:35 AM 70.9°F21.6°C 68.4°F20.2°C 92% Calm Calm -- 29.86 in1011.2 mb 0.02 in0.5 mm 0.00 in/hr0.0 mm/hr 0.67 in17.0 mm
06:37 AM 70.9°F21.6°C 68.4°F20.2°C 92% Calm Calm -- 29.87 in1011.5 mb 0.02 in0.5 mm 0.00 in/hr0.0 mm/hr 0.67 in17.0 mm
06:39 AM 70.9°F21.6°C 68.4°F20.2°C 92% Calm Calm -- 29.86 in1011.2 mb 0.02 in0.5 mm 0.00 in/hr0.0 mm/hr 0.67 in17.0 mm
06:41 AM 70.9°F21.6°C 68.4°F20.2°C 92% Calm Calm -- 29.86 in1011.2 mb 0.02 in0.5 mm 0.00 in/hr0.0 mm/hr 0.67 in17.0 mm
06:43 AM 70.9°F21.6°C 68.4°F20.2°C 92% 1.1 mph ESE1.8 kmh ESE 1.1 mph1.8 kmh 29.86 in1011.2 mb 0.02 in0.5 mm 0.00 in/hr0.0 mm/hr 0.67 in17.0 mm
06:45 AM 70.9°F21.6°C 68.4°F20.2°C 93% Calm Calm 1.1 mph1.8 kmh 29.86 in1011.2 mb 0.02 in0.5 mm 0.00 in/hr0.0 mm/hr 0.67 in17.0 mm
06:47 AM 71.1°F21.7°C 68.9°F20.5°C 93% Calm Calm 1.1 mph1.8 kmh 29.86 in1011.2 mb 0.02 in0.5 mm 0.00 in/hr0.0 mm/hr 0.67 in17.0 mm
06:49 AM 71.1°F21.7°C 68.9°F20.5°C 93% 1.8 mph ESE2.9 kmh ESE 1.8 mph2.9 kmh 29.86 in1011.2 mb 0.02 in0.5 mm 0.00 in/hr0.0 mm/hr 0.67 in17.0 mm
06:51 AM 71.2°F21.8°C 69.1°F20.6°C 93% Calm Calm 1.8 mph2.9 kmh 29.86 in1011.2 mb 0.02 in0.5 mm 0.00 in/hr0.0 mm/hr 0.67 in17.0 mm
06:53 AM 71.2°F21.8°C 69.1°F20.6°C 93% 0.4 mph ESE0.6 kmh ESE 1.8 mph2.9 kmh 29.86 in1011.2 mb 0.02 in0.5 mm 0.00 in/hr0.0 mm/hr 0.67 in17.0 mm
06:55 AM 71.1°F21.7°C 68.9°F20.5°C 93% 1.6 mph SE2.6 kmh SE 1.8 mph2.9 kmh 29.86 in1011.2 mb 0.02 in0.5 mm 0.00 in/hr0.0 mm/hr 0.67 in17.0 mm
06:57 AM 71.2°F21.8°C 69.1°F20.6°C 93% Calm Calm 1.8 mph2.9 kmh 29.86 in1011.2 mb 0.02 in0.5 mm 0.00 in/hr0.0 mm/hr 0.67 in17.0 mm
06:59 AM 71.2°F21.8°C 69.1°F20.6°C 93% Calm Calm 1.8 mph2.9 kmh 29.86 in1011.2 mb 0.02 in0.5 mm 0.00 in/hr0.0 mm/hr 0.67 in17.0 mm
07:01 AM 71.2°F21.8°C 69.1°F20.6°C 93% Calm Calm 1.6 mph2.6 kmh 29.87 in1011.5 mb 0.02 in0.5 mm 0.00 in/hr0.0 mm/hr 0.67 in17.0 mm
07:03 AM 71.2°F21.8°C 69.1°F20.6°C 93% Calm Calm 1.6 mph2.6 kmh 29.86 in1011.2 mb 0.02 in0.5 mm 0.00 in/hr0.0 mm/hr 0.67 in17.0 mm
07:05 AM 71.2°F21.8°C 69.1°F20.6°C 93% Calm Calm 1.6 mph2.6 kmh 29.86 in1011.2 mb 0.00 in0.0 mm 0.00 in/hr0.0 mm/hr 0.67 in17.0 mm
07:07 AM 71.2°F21.8°C 69.1°F20.6°C 93% Calm Calm -- 29.86 in1011.2 mb 0.00 in0.0 mm 0.00 in/hr0.0 mm/hr 0.67 in17.0 mm
07:09 AM 71.2°F21.8°C 69.1°F20.6°C 93% Calm Calm -- 29.86 in1011.2 mb 0.00 in0.0 mm 0.00 in/hr0.0 mm/hr 0.67 in17.0 mm
07:11 AM 71.2°F21.8°C 69.1°F20.6°C 93% Calm Calm -- 29.86 in1011.2 mb 0.00 in0.0 mm 0.00 in/hr0.0 mm/hr 0.67 in17.0 mm
07:13 AM 71.4°F21.9°C 69.3°F20.7°C 93% Calm Calm -- 29.86 in1011.2 mb 0.00 in0.0 mm 0.00 in/hr0.0 mm/hr 0.67 in17.0 mm
07:15 AM 71.4°F21.9°C 69.3°F20.7°C 93% Calm Calm -- 29.87 in1011.5 mb 0.00 in0.0 mm 0.00 in/hr0.0 mm/hr 0.67 in17.0 mm
07:17 AM 71.4°F21.9°C 69.3°F20.7°C 93% Calm Calm -- 29.87 in1011.5 mb 0.00 in0.0 mm 0.00 in/hr0.0 mm/hr 0.67 in17.0 mm
07:19 AM 71.4°F21.9°C 69.3°F20.7°C 93% Calm Calm -- 29.87 in1011.5 mb 0.00 in0.0 mm 0.00 in/hr0.0 mm/hr 0.67 in17.0 mm
07:21 AM 71.4°F21.9°C 69.3°F20.7°C 93% 0.9 mph SE1.4 kmh SE 0.9 mph1.4 kmh 29.87 in1011.5 mb 0.02 in0.5 mm 0.60 in/hr15.2 mm/hr 0.69 in17.5 mm
07:23 AM 71.4°F21.9°C 69.3°F20.7°C 93% Calm Calm 0.9 mph1.4 kmh 29.87 in1011.5 mb 0.08 in2.0 mm 1.80 in/hr45.7 mm/hr 0.75 in19.1 mm
07:25 AM 71.4°F21.9°C 69.3°F20.7°C 93% Calm Calm 0.9 mph1.4 kmh 29.87 in1011.5 mb 0.14 in3.6 mm 1.80 in/hr45.7 mm/hr 0.82 in20.8 mm
07:27 AM 71.4°F21.9°C 69.3°F20.7°C 93% Calm Calm 0.9 mph1.4 kmh 29.87 in1011.5 mb 0.18 in4.6 mm 1.20 in/hr30.5 mm/hr 0.86 in21.8 mm
07:29 AM 71.2°F21.8°C 69.1°F20.6°C 93% 1.3 mph S2.1 kmh S 1.3 mph2.1 kmh 29.87 in1011.5 mb 0.22 in5.6 mm 1.20 in/hr30.5 mm/hr 0.90 in22.9 mm
07:31 AM 71.2°F21.8°C 69.1°F20.6°C 93% 1.8 mph SSE2.9 kmh SSE 1.8 mph2.9 kmh 29.86 in1011.2 mb 0.26 in6.6 mm 1.20 in/hr30.5 mm/hr 0.94 in23.9 mm
07:33 AM 71.2°F21.8°C 69.1°F20.6°C 93% Calm Calm 1.8 mph2.9 kmh 29.87 in1011.5 mb 0.29 in7.4 mm 0.90 in/hr22.9 mm/hr 0.96 in24.4 mm
07:35 AM 71.4°F21.9°C 69.3°F20.7°C 93% 1.1 mph ENE1.8 kmh ENE 1.8 mph2.9 kmh 29.88 in1011.9 mb 0.31 in7.9 mm 0.60 in/hr15.2 mm/hr 0.98 in24.9 mm
07:37 AM 71.4°F21.9°C 69.3°F20.7°C 93% 0.9 mph ENE1.4 kmh ENE 1.8 mph2.9 kmh 29.88 in1011.9 mb 0.31 in7.9 mm 0.00 in/hr0.0 mm/hr 0.98 in24.9 mm
07:39 AM 71.4°F21.9°C 69.3°F20.7°C 93% 1.1 mph NE1.8 kmh NE 1.8 mph2.9 kmh 29.87 in1011.5 mb 0.31 in7.9 mm 0.00 in/hr0.0 mm/hr 1.00 in25.4 mm
07:41 AM 71.4°F21.9°C 69.3°F20.7°C 93% Calm Calm 1.8 mph2.9 kmh 29.88 in1011.9 mb 0.33 in8.4 mm 0.60 in/hr15.2 mm/hr 1.04 in26.4 mm
07:43 AM 71.2°F21.8°C 69.1°F20.6°C 93% Calm Calm 1.1 mph1.8 kmh 29.88 in1011.9 mb 0.37 in9.4 mm 1.20 in/hr30.5 mm/hr 1.10 in27.9 mm
07:45 AM 71.2°F21.8°C 69.1°F20.6°C 93% Calm Calm 1.1 mph1.8 kmh 29.87 in1011.5 mb 0.43 in10.9 mm 1.80 in/hr45.7 mm/hr 1.14 in29.0 mm
07:47 AM 71.2°F21.8°C 69.1°F20.6°C 93% Calm Calm 1.1 mph1.8 kmh 29.87 in1011.5 mb 0.47 in11.9 mm 1.20 in/hr30.5 mm/hr 1.14 in29.0 mm
07:49 AM 71.4°F21.9°C 69.3°F20.7°C 93% Calm Calm 1.1 mph1.8 kmh 29.87 in1011.5 mb 0.49 in12.4 mm 0.60 in/hr15.2 mm/hr 1.16 in29.5 mm
07:51 AM 71.2°F21.8°C 69.1°F20.6°C 93% Calm Calm -- 29.87 in1011.5 mb 0.51 in13.0 mm 0.60 in/hr15.2 mm/hr 1.18 in30.0 mm
07:53 AM 71.2°F21.8°C 69.1°F20.6°C 93% Calm Calm -- 29.87 in1011.5 mb 0.51 in13.0 mm 0.00 in/hr0.0 mm/hr 1.18 in30.0 mm
07:55 AM 71.2°F21.8°C 69.1°F20.6°C 93% Calm Calm -- 29.87 in1011.5 mb 0.53 in13.5 mm 0.60 in/hr15.2 mm/hr 1.20 in30.5 mm
07:57 AM 71.4°F21.9°C 69.3°F20.7°C 93% Calm Calm -- 29.87 in1011.5 mb 0.55 in14.0 mm 0.60 in/hr15.2 mm/hr 1.22 in31.0 mm
07:59 AM 71.4°F21.9°C 69.3°F20.7°C 93% Calm Calm -- 29.87 in1011.5 mb 0.57 in14.5 mm 0.60 in/hr15.2 mm/hr 1.24 in31.5 mm
08:01 AM 71.4°F21.9°C 69.3°F20.7°C 93% Calm Calm -- 29.87 in1011.5 mb 0.57 in14.5 mm 0.00 in/hr0.0 mm/hr 1.24 in31.5 mm
08:03 AM 71.2°F21.8°C 69.1°F20.6°C 93% Calm Calm -- 29.87 in1011.5 mb 0.57 in14.5 mm 0.00 in/hr0.0 mm/hr 1.24 in31.5 mm
08:05 AM 71.4°F21.9°C 69.3°F20.7°C 93% Calm Calm -- 29.87 in1011.5 mb 0.61 in15.5 mm 1.20 in/hr30.5 mm/hr 1.28 in32.5 mm
08:07 AM 71.4°F21.9°C 69.3°F20.7°C 93% 0.9 mph ESE1.4 kmh ESE 0.9 mph1.4 kmh 29.88 in1011.9 mb 0.61 in15.5 mm 0.00 in/hr0.0 mm/hr 1.28 in32.5 mm
08:09 AM 71.4°F21.9°C 69.3°F20.7°C 93% Calm Calm 0.9 mph1.4 kmh 29.88 in1011.9 mb 0.61 in15.5 mm 0.00 in/hr0.0 mm/hr 1.28 in32.5 mm
08:11 AM 71.4°F21.9°C 69.3°F20.7°C 93% Calm Calm 0.9 mph1.4 kmh 29.88 in1011.9 mb 0.61 in15.5 mm 0.00 in/hr0.0 mm/hr 1.28 in32.5 mm
08:13 AM 71.4°F21.9°C 69.3°F20.7°C 93% Calm Calm 0.9 mph1.4 kmh 29.88 in1011.9 mb 0.61 in15.5 mm 0.00 in/hr0.0 mm/hr 1.28 in32.5 mm
08:15 AM 71.4°F21.9°C 69.3°F20.7°C 93% 5.6 mph ESE9.0 kmh ESE 5.6 mph9.0 kmh 29.88 in1011.9 mb 0.61 in15.5 mm 0.00 in/hr0.0 mm/hr 1.28 in32.5 mm
08:17 AM 71.4°F21.9°C 69.3°F20.7°C 93% Calm Calm 5.6 mph9.0 kmh 29.88 in1011.9 mb 0.61 in15.5 mm 0.00 in/hr0.0 mm/hr 1.28 in32.5 mm
08:19 AM 71.4°F21.9°C 69.3°F20.7°C 93% Calm Calm 5.6 mph9.0 kmh 29.88 in1011.9 mb 0.59 in15.0 mm 0.00 in/hr0.0 mm/hr 1.28 in32.5 mm
08:21 AM 71.4°F21.9°C 69.3°F20.7°C 93% 2.7 mph ESE4.3 kmh ESE 5.6 mph9.0 kmh 29.88 in1011.9 mb 0.53 in13.5 mm 0.00 in/hr0.0 mm/hr 1.28 in32.5 mm
08:23 AM 71.4°F21.9°C 69.3°F20.7°C 93% 2.7 mph SE4.3 kmh SE 5.6 mph9.0 kmh 29.88 in1011.9 mb 0.53 in13.5 mm 0.00 in/hr0.0 mm/hr 1.28 in32.5 mm
08:25 AM 71.4°F21.9°C 69.3°F20.7°C 93% Calm Calm 5.6 mph9.0 kmh 29.88 in1011.9 mb 0.49 in12.4 mm 0.00 in/hr0.0 mm/hr 1.31 in33.3 mm
08:27 AM 71.4°F21.9°C 69.3°F20.7°C 93% 1.8 mph SE2.9 kmh SE 2.7 mph4.3 kmh 29.87 in1011.5 mb 0.45 in11.4 mm 0.00 in/hr0.0 mm/hr 1.31 in33.3 mm
08:29 AM 71.4°F21.9°C 69.3°F20.7°C 93% 3.1 mph SE5.0 kmh SE 3.1 mph5.0 kmh 29.88 in1011.9 mb 0.41 in10.4 mm 0.00 in/hr0.0 mm/hr 1.31 in33.3 mm
08:31 AM 71.4°F21.9°C 69.3°F20.7°C 93% 4.9 mph ESE7.9 kmh ESE 4.9 mph7.9 kmh 29.88 in1011.9 mb 0.41 in10.4 mm 0.00 in/hr0.0 mm/hr 1.35 in34.3 mm
08:33 AM 71.4°F21.9°C 69.3°F20.7°C 93% 0.4 mph ESE0.6 kmh ESE 4.9 mph7.9 kmh 29.88 in1011.9 mb 0.39 in9.9 mm 0.00 in/hr0.0 mm/hr 1.35 in34.3 mm
08:35 AM 71.4°F21.9°C 69.3°F20.7°C 93% 3.6 mph ESE5.8 kmh ESE 4.9 mph7.9 kmh 29.88 in1011.9 mb 0.37 in9.4 mm 0.00 in/hr0.0 mm/hr 1.35 in34.3 mm
08:37 AM 71.4°F21.9°C 69.3°F20.7°C 93% 1.6 mph ESE2.6 kmh ESE 4.9 mph7.9 kmh 29.87 in1011.5 mb 0.37 in9.4 mm 0.00 in/hr0.0 mm/hr 1.35 in34.3 mm
08:39 AM 71.4°F21.9°C 69.3°F20.7°C 93% Calm Calm 4.9 mph7.9 kmh 29.87 in1011.5 mb 0.35 in8.9 mm 0.00 in/hr0.0 mm/hr 1.35 in34.3 mm
08:41 AM 71.4°F21.9°C 69.3°F20.7°C 93% 2.2 mph SE3.5 kmh SE 4.9 mph7.9 kmh 29.88 in1011.9 mb 0.31 in7.9 mm 0.00 in/hr0.0 mm/hr 1.35 in34.3 mm
08:43 AM 71.4°F21.9°C 69.3°F20.7°C 93% 3.6 mph SE5.8 kmh SE 3.6 mph5.8 kmh 29.87 in1011.5 mb 0.24 in6.1 mm 0.00 in/hr0.0 mm/hr 1.35 in34.3 mm
08:45 AM 71.4°F21.9°C 69.3°F20.7°C 93% 2.5 mph SE4.0 kmh SE 3.6 mph5.8 kmh 29.87 in1011.5 mb 0.20 in5.1 mm 0.00 in/hr0.0 mm/hr 1.35 in34.3 mm
08:47 AM 71.4°F21.9°C 69.3°F20.7°C 93% 1.1 mph SE1.8 kmh SE 3.6 mph5.8 kmh 29.88 in1011.9 mb 0.18 in4.6 mm 0.00 in/hr0.0 mm/hr 1.35 in34.3 mm
08:49 AM 71.4°F21.9°C 69.3°F20.7°C 93% 1.1 mph SE1.8 kmh SE 3.6 mph5.8 kmh 29.88 in1011.9 mb 0.16 in4.1 mm 0.00 in/hr0.0 mm/hr 1.35 in34.3 mm
08:51 AM 71.6°F22.0°C 69.5°F20.8°C 93% 4.3 mph SE6.9 kmh SE 4.3 mph6.9 kmh 29.87 in1011.5 mb 0.16 in4.1 mm 0.00 in/hr0.0 mm/hr 1.35 in34.3 mm
08:53 AM 71.8°F22.1°C 69.6°F20.9°C 93% Calm Calm 4.3 mph6.9 kmh 29.88 in1011.9 mb 0.16 in4.1 mm 0.00 in/hr0.0 mm/hr 1.35 in34.3 mm
08:55 AM 71.8°F22.1°C 69.6°F20.9°C 93% 1.8 mph E2.9 kmh E 4.3 mph6.9 kmh 29.87 in1011.5 mb 0.14 in3.6 mm 0.00 in/hr0.0 mm/hr 1.35 in34.3 mm
08:57 AM 71.8°F22.1°C 69.6°F20.9°C 93% 2.7 mph ESE4.3 kmh ESE 4.3 mph6.9 kmh 29.88 in1011.9 mb 0.12 in3.0 mm 0.00 in/hr0.0 mm/hr 1.35 in34.3 mm
08:59 AM 72.0°F22.2°C 69.8°F21.0°C 93% 2.2 mph ESE3.5 kmh ESE 4.3 mph6.9 kmh 29.87 in1011.5 mb 0.10 in2.5 mm 0.00 in/hr0.0 mm/hr 1.35 in34.3 mm
09:01 AM 72.0°F22.2°C 69.8°F21.0°C 93% Calm Calm 4.3 mph6.9 kmh 29.88 in1011.9 mb 0.10 in2.5 mm 0.00 in/hr0.0 mm/hr 1.35 in34.3 mm
09:03 AM 72.1°F22.3°C 70.0°F21.1°C 93% Calm Calm 2.7 mph4.3 kmh 29.87 in1011.5 mb 0.10 in2.5 mm 0.00 in/hr0.0 mm/hr 1.35 in34.3 mm
09:05 AM 72.0°F22.2°C 69.8°F21.0°C 93% 4.7 mph ESE7.6 kmh ESE 4.7 mph7.6 kmh 29.88 in1011.9 mb 0.06 in1.5 mm 0.00 in/hr0.0 mm/hr 1.35 in34.3 mm
09:07 AM 72.1°F22.3°C 70.0°F21.1°C 93% Calm Calm 4.7 mph7.6 kmh 29.88 in1011.9 mb 0.06 in1.5 mm 0.00 in/hr0.0 mm/hr 1.35 in34.3 mm
09:09 AM 72.1°F22.3°C 70.0°F21.1°C 93% Calm Calm 4.7 mph7.6 kmh 29.87 in1011.5 mb 0.06 in1.5 mm 0.00 in/hr0.0 mm/hr 1.35 in34.3 mm
09:11 AM 72.3°F22.4°C 69.9°F21.1°C 92% Calm Calm 4.7 mph7.6 kmh 29.87 in1011.5 mb 0.06 in1.5 mm 0.00 in/hr0.0 mm/hr 1.35 in34.3 mm
09:13 AM 72.3°F22.4°C 69.9°F21.1°C 92% Calm Calm 4.7 mph7.6 kmh 29.87 in1011.5 mb 0.06 in1.5 mm 0.00 in/hr0.0 mm/hr 1.35 in34.3 mm
09:15 AM 72.3°F22.4°C 69.9°F21.1°C 92% Calm Calm 4.7 mph7.6 kmh 29.87 in1011.5 mb 0.06 in1.5 mm 0.00 in/hr0.0 mm/hr 1.35 in34.3 mm
09:17 AM 72.5°F22.5°C 70.4°F21.3°C 93% Calm Calm -- 29.87 in1011.5 mb 0.06 in1.5 mm 0.00 in/hr0.0 mm/hr 1.35 in34.3 mm
09:19 AM 72.5°F22.5°C 70.4°F21.3°C 93% Calm Calm -- 29.87 in1011.5 mb 0.06 in1.5 mm 0.00 in/hr0.0 mm/hr 1.35 in34.3 mm
09:21 AM 72.5°F22.5°C 70.0°F21.1°C 92% Calm Calm -- 29.88 in1011.9 mb 0.06 in1.5 mm 0.00 in/hr0.0 mm/hr 1.35 in34.3 mm
09:23 AM 72.5°F22.5°C 70.0°F21.1°C 92% Calm Calm -- 29.88 in1011.9 mb 0.04 in1.0 mm 0.00 in/hr0.0 mm/hr 1.35 in34.3 mm
09:25 AM 72.7°F22.6°C 70.2°F21.2°C 92% Calm Calm -- 29.88 in1011.9 mb 0.04 in1.0 mm 0.00 in/hr0.0 mm/hr 1.35 in34.3 mm
09:27 AM 72.7°F22.6°C 70.2°F21.2°C 92% Calm Calm -- 29.88 in1011.9 mb 0.04 in1.0 mm 0.00 in/hr0.0 mm/hr 1.35 in34.3 mm
09:29 AM 72.7°F22.6°C 70.2°F21.2°C 92% Calm Calm -- 29.88 in1011.9 mb 0.04 in1.0 mm 0.00 in/hr0.0 mm/hr 1.35 in34.3 mm
09:31 AM 72.7°F22.6°C 70.2°F21.2°C 92% Calm Calm -- 29.88 in1011.9 mb 0.00 in0.0 mm 0.00 in/hr0.0 mm/hr 1.35 in34.3 mm
09:33 AM 72.7°F22.6°C 70.2°F21.2°C 92% Calm Calm -- 29.88 in1011.9 mb 0.00 in0.0 mm 0.00 in/hr0.0 mm/hr 1.35 in34.3 mm
09:35 AM 72.9°F22.7°C 70.4°F21.3°C 92% 3.4 mph E5.5 kmh E 3.4 mph5.5 kmh 29.88 in1011.9 mb 0.00 in0.0 mm 0.00 in/hr0.0 mm/hr 1.35 in34.3 mm
09:37 AM 72.7°F22.6°C 69.9°F21.1°C 91% Calm Calm 3.4 mph5.5 kmh 29.88 in1011.9 mb 0.00 in0.0 mm 0.00 in/hr0.0 mm/hr 1.35 in34.3 mm
09:39 AM 72.9°F22.7°C 70.1°F21.2°C 91% Calm Calm 3.4 mph5.5 kmh 29.88 in1011.9 mb 0.00 in0.0 mm 0.00 in/hr0.0 mm/hr 1.35 in34.3 mm
09:41 AM 72.7°F22.6°C 69.9°F21.1°C 91% Calm Calm 3.4 mph5.5 kmh 29.88 in1011.9 mb 0.00 in0.0 mm 0.00 in/hr0.0 mm/hr 1.35 in34.3 mm
09:43 AM 72.7°F22.6°C 69.9°F21.1°C 91% Calm Calm 3.4 mph5.5 kmh 29.88 in1011.9 mb 0.00 in0.0 mm 0.00 in/hr0.0 mm/hr 1.37 in34.8 mm
09:45 AM 72.9°F22.7°C 70.1°F21.2°C 91% Calm Calm 3.4 mph5.5 kmh 29.88 in1011.9 mb 0.02 in0.5 mm 0.60 in/hr15.2 mm/hr 1.37 in34.8 mm
09:47 AM 72.9°F22.7°C 70.1°F21.2°C 91% Calm Calm -- 29.88 in1011.9 mb 0.02 in0.5 mm 0.00 in/hr0.0 mm/hr 1.39 in35.3 mm
09:49 AM 72.9°F22.7°C 70.1°F21.2°C 91% Calm Calm -- 29.89 in1012.2 mb 0.04 in1.0 mm 0.60 in/hr15.2 mm/hr 1.39 in35.3 mm
09:51 AM 72.9°F22.7°C 70.1°F21.2°C 91% Calm Calm -- 29.88 in1011.9 mb 0.04 in1.0 mm 0.00 in/hr0.0 mm/hr 1.39 in35.3 mm
09:53 AM 72.9°F22.7°C 70.1°F21.2°C 91% 1.8 mph ENE2.9 kmh ENE 1.8 mph2.9 kmh 29.89 in1012.2 mb 0.04 in1.0 mm 0.00 in/hr0.0 mm/hr 1.39 in35.3 mm
09:55 AM 72.7°F22.6°C 69.9°F21.1°C 91% 0.9 mph E1.4 kmh E 1.8 mph2.9 kmh 29.88 in1011.9 mb 0.06 in1.5 mm 0.60 in/hr15.2 mm/hr 1.41 in35.8 mm
09:57 AM 72.9°F22.7°C 70.1°F21.2°C 91% Calm Calm 1.8 mph2.9 kmh 29.88 in1011.9 mb 0.08 in2.0 mm 0.60 in/hr15.2 mm/hr 1.43 in36.3 mm
09:59 AM 72.7°F22.6°C 69.9°F21.1°C 91% Calm Calm 1.8 mph2.9 kmh 29.88 in1011.9 mb 0.12 in3.0 mm 1.20 in/hr30.5 mm/hr 1.47 in37.3 mm
10:01 AM 72.7°F22.6°C 69.9°F21.1°C 91% Calm Calm 1.8 mph2.9 kmh 29.88 in1011.9 mb 0.14 in3.6 mm 0.02 in/hr0.5 mm/hr 1.49 in37.8 mm
10:03 AM 72.7°F22.6°C 69.9°F21.1°C 91% Calm Calm 1.8 mph2.9 kmh 29.88 in1011.9 mb 0.16 in4.1 mm 0.60 in/hr15.2 mm/hr 1.51 in38.4 mm
10:05 AM 72.7°F22.6°C 69.9°F21.1°C 91% Calm Calm 0.9 mph1.4 kmh 29.88 in1011.9 mb 0.20 in5.1 mm 1.20 in/hr30.5 mm/hr 1.55 in39.4 mm
10:07 AM 72.5°F22.5°C 69.7°F20.9°C 91% Calm Calm -- 29.88 in1011.9 mb 0.20 in5.1 mm 0.00 in/hr0.0 mm/hr 1.55 in39.4 mm
10:09 AM 72.7°F22.6°C 69.9°F21.1°C 91% Calm Calm -- 29.88 in1011.9 mb 0.22 in5.6 mm 0.60 in/hr15.2 mm/hr 1.57 in39.9 mm
10:11 AM 72.5°F22.5°C 69.7°F20.9°C 91% Calm Calm -- 29.88 in1011.9 mb 0.22 in5.6 mm 0.00 in/hr0.0 mm/hr 1.59 in40.4 mm
10:13 AM 72.5°F22.5°C 69.7°F20.9°C 91% Calm Calm -- 29.88 in1011.9 mb 0.24 in6.1 mm 0.60 in/hr15.2 mm/hr 1.61 in40.9 mm
10:15 AM 72.7°F22.6°C 69.9°F21.1°C 91% Calm Calm -- 29.88 in1011.9 mb 0.27 in6.9 mm 0.90 in/hr22.9 mm/hr 1.61 in40.9 mm
10:17 AM 72.7°F22.6°C 69.9°F21.1°C 91% Calm Calm -- 29.88 in1011.9 mb 0.27 in6.9 mm 0.00 in/hr0.0 mm/hr 1.61 in40.9 mm
10:19 AM 72.5°F22.5°C 69.7°F20.9°C 91% Calm Calm -- 29.88 in1011.9 mb 0.27 in6.9 mm 0.00 in/hr0.0 mm/hr 1.61 in40.9 mm
10:21 AM 72.5°F22.5°C 70.0°F21.1°C 92% Calm Calm -- 29.88 in1011.9 mb 0.29 in7.4 mm 0.60 in/hr15.2 mm/hr 1.63 in41.4 mm
10:23 AM 72.5°F22.5°C 70.0°F21.1°C 92% Calm Calm -- 29.88 in1011.9 mb 0.33 in8.4 mm 1.20 in/hr30.5 mm/hr 1.67 in42.4 mm
10:25 AM 72.5°F22.5°C 70.0°F21.1°C 92% 0.9 mph ENE1.4 kmh ENE 0.9 mph1.4 kmh 29.89 in1012.2 mb 0.35 in8.9 mm 0.60 in/hr15.2 mm/hr 1.69 in42.9 mm
10:27 AM 72.5°F22.5°C 70.0°F21.1°C 92% Calm Calm 0.9 mph1.4 kmh 29.89 in1012.2 mb 0.39 in9.9 mm 1.20 in/hr30.5 mm/hr 1.73 in43.9 mm
10:29 AM 72.5°F22.5°C 70.0°F21.1°C 92% Calm Calm 0.9 mph1.4 kmh 29.88 in1011.9 mb 0.45 in11.4 mm 1.80 in/hr45.7 mm/hr 1.79 in45.5 mm
10:31 AM 72.3°F22.4°C 69.9°F21.1°C 92% Calm Calm 0.9 mph1.4 kmh 29.88 in1011.9 mb 0.49 in12.4 mm 1.20 in/hr30.5 mm/hr 1.84 in46.7 mm
10:33 AM 72.5°F22.5°C 70.0°F21.1°C 92% Calm Calm 0.9 mph1.4 kmh 29.89 in1012.2 mb 0.51 in13.0 mm 0.60 in/hr15.2 mm/hr 1.86 in47.2 mm
10:35 AM 72.3°F22.4°C 69.9°F21.1°C 92% 4.3 mph SSE6.9 kmh SSE 4.3 mph6.9 kmh 29.89 in1012.2 mb 0.53 in13.5 mm 0.60 in/hr15.2 mm/hr 1.88 in47.8 mm
10:37 AM 72.3°F22.4°C 69.9°F21.1°C 92% Calm Calm 4.3 mph6.9 kmh 29.89 in1012.2 mb 0.57 in14.5 mm 1.20 in/hr30.5 mm/hr 1.92 in48.8 mm
10:39 AM 72.3°F22.4°C 69.9°F21.1°C 92% Calm Calm 4.3 mph6.9 kmh 29.88 in1011.9 mb 0.61 in15.5 mm 1.20 in/hr30.5 mm/hr 1.96 in49.8 mm
10:41 AM 72.3°F22.4°C 69.9°F21.1°C 92% 4.9 mph SSE7.9 kmh SSE 4.9 mph7.9 kmh 29.89 in1012.2 mb 0.61 in15.5 mm 0.00 in/hr0.0 mm/hr 1.98 in50.3 mm
10:43 AM 72.3°F22.4°C 69.9°F21.1°C 92% Calm Calm 4.9 mph7.9 kmh 29.89 in1012.2 mb 0.63 in16.0 mm 0.60 in/hr15.2 mm/hr 2.02 in51.3 mm
10:45 AM 72.1°F22.3°C 69.4°F20.8°C 91% Calm Calm 4.9 mph7.9 kmh 29.89 in1012.2 mb 0.65 in16.5 mm 0.60 in/hr15.2 mm/hr 2.06 in52.3 mm
10:47 AM 72.1°F22.3°C 69.4°F20.8°C 91% 1.3 mph SE2.1 kmh SE 4.9 mph7.9 kmh 29.88 in1011.9 mb 0.67 in17.0 mm 0.60 in/hr15.2 mm/hr 2.08 in52.8 mm
10:49 AM 72.0°F22.2°C 69.2°F20.7°C 91% Calm Calm 4.9 mph7.9 kmh 29.88 in1011.9 mb 0.69 in17.5 mm 0.60 in/hr15.2 mm/hr 2.10 in53.3 mm
10:51 AM 72.0°F22.2°C 69.2°F20.7°C 91% Calm Calm 4.9 mph7.9 kmh 29.89 in1012.2 mb 0.71 in18.0 mm 0.60 in/hr15.2 mm/hr 2.10 in53.3 mm
10:53 AM 72.0°F22.2°C 69.2°F20.7°C 91% Calm Calm 1.3 mph2.1 kmh 29.89 in1012.2 mb 0.71 in18.0 mm 0.00 in/hr0.0 mm/hr 2.12 in53.8 mm
10:55 AM 71.8°F22.1°C 69.0°F20.6°C 91% Calm Calm 1.3 mph2.1 kmh 29.88 in1011.9 mb 0.73 in18.5 mm 0.60 in/hr15.2 mm/hr 2.16 in54.9 mm
10:57 AM 71.8°F22.1°C 69.0°F20.6°C 91% 0.9 mph SE1.4 kmh SE 1.3 mph2.1 kmh 29.88 in1011.9 mb 0.77 in19.6 mm 1.20 in/hr30.5 mm/hr 2.20 in55.9 mm
10:59 AM 71.8°F22.1°C 69.0°F20.6°C 91% Calm Calm 0.9 mph1.4 kmh 29.88 in1011.9 mb 0.75 in19.1 mm 0.00 in/hr0.0 mm/hr 2.22 in56.4 mm
11:01 AM 71.4°F21.9°C 68.7°F20.4°C 91% Calm Calm 0.9 mph1.4 kmh 29.88 in1011.9 mb 0.77 in19.6 mm 0.02 in/hr0.5 mm/hr 2.26 in57.4 mm
11:03 AM 71.4°F21.9°C 69.0°F20.6°C 92% Calm Calm 0.9 mph1.4 kmh 29.88 in1011.9 mb 0.80 in20.3 mm 0.90 in/hr22.9 mm/hr 2.30 in58.4 mm
11:05 AM 71.4°F21.9°C 69.0°F20.6°C 92% Calm Calm 0.9 mph1.4 kmh 29.88 in1011.9 mb 0.78 in19.8 mm 0.00 in/hr0.0 mm/hr 2.32 in58.9 mm
11:07 AM 71.4°F21.9°C 69.0°F20.6°C 92% Calm Calm 0.9 mph1.4 kmh 29.88 in1011.9 mb 0.80 in20.3 mm 0.60 in/hr15.2 mm/hr 2.35 in59.7 mm
11:09 AM 71.4°F21.9°C 69.0°F20.6°C 92% Calm Calm -- 29.88 in1011.9 mb 0.80 in20.3 mm 0.00 in/hr0.0 mm/hr 2.37 in60.2 mm
11:11 AM 71.4°F21.9°C 69.0°F20.6°C 92% Calm Calm -- 29.88 in1011.9 mb 0.80 in20.3 mm 0.00 in/hr0.0 mm/hr 2.39 in60.7 mm
11:13 AM 71.4°F21.9°C 69.0°F20.6°C 92% Calm Calm -- 29.88 in1011.9 mb 0.80 in20.3 mm 0.00 in/hr0.0 mm/hr 2.41 in61.2 mm
11:15 AM 71.4°F21.9°C 69.0°F20.6°C 92% Calm Calm -- 29.88 in1011.9 mb 0.80 in20.3 mm 0.00 in/hr0.0 mm/hr 2.43 in61.7 mm
11:17 AM 71.4°F21.9°C 69.0°F20.6°C 92% Calm Calm -- 29.88 in1011.9 mb 0.82 in20.8 mm 0.60 in/hr15.2 mm/hr 2.45 in62.2 mm
11:19 AM 71.4°F21.9°C 69.0°F20.6°C 92% Calm Calm -- 29.88 in1011.9 mb 0.84 in21.3 mm 0.60 in/hr15.2 mm/hr 2.49 in63.2 mm
11:21 AM 71.4°F21.9°C 69.0°F20.6°C 92% Calm Calm -- 29.88 in1011.9 mb 0.86 in21.8 mm 0.60 in/hr15.2 mm/hr 2.49 in63.2 mm
11:23 AM 71.4°F21.9°C 69.0°F20.6°C 92% Calm Calm -- 29.88 in1011.9 mb 0.84 in21.3 mm 0.00 in/hr0.0 mm/hr 2.51 in63.8 mm
11:25 AM 71.4°F21.9°C 69.0°F20.6°C 92% Calm Calm -- 29.88 in1011.9 mb 0.84 in21.3 mm 0.00 in/hr0.0 mm/hr 2.53 in64.3 mm
11:27 AM 71.4°F21.9°C 69.0°F20.6°C 92% Calm Calm -- 29.88 in1011.9 mb 0.82 in20.8 mm 0.00 in/hr0.0 mm/hr 2.55 in64.8 mm
11:29 AM 71.4°F21.9°C 69.0°F20.6°C 92% Calm Calm -- 29.87 in1011.5 mb 0.80 in20.3 mm 0.00 in/hr0.0 mm/hr 2.59 in65.8 mm
11:31 AM 71.4°F21.9°C 69.0°F20.6°C 92% Calm Calm -- 29.88 in1011.9 mb 0.77 in19.6 mm 0.00 in/hr0.0 mm/hr 2.61 in66.3 mm
11:33 AM 71.4°F21.9°C 69.0°F20.6°C 92% Calm Calm -- 29.88 in1011.9 mb 0.75 in19.1 mm 0.00 in/hr0.0 mm/hr 2.61 in66.3 mm
11:35 AM 71.4°F21.9°C 69.0°F20.6°C 92% Calm Calm -- 29.87 in1011.5 mb 0.73 in18.5 mm 0.00 in/hr0.0 mm/hr 2.61 in66.3 mm
11:37 AM 71.8°F22.1°C 69.3°F20.7°C 92% Calm Calm -- 29.87 in1011.5 mb 0.73 in18.5 mm 0.00 in/hr0.0 mm/hr 2.65 in67.3 mm
11:39 AM 71.8°F22.1°C 69.3°F20.7°C 92% Calm Calm -- 29.88 in1011.9 mb 0.80 in20.3 mm 2.10 in/hr53.3 mm/hr 2.75 in69.9 mm
11:41 AM 71.8°F22.1°C 69.3°F20.7°C 92% Calm Calm -- 29.87 in1011.5 mb 0.82 in20.8 mm 0.60 in/hr15.2 mm/hr 2.77 in70.4 mm
11:43 AM 71.8°F22.1°C 69.3°F20.7°C 92% Calm Calm -- 29.88 in1011.9 mb 0.75 in19.1 mm 0.00 in/hr0.0 mm/hr 2.79 in70.9 mm
11:45 AM 71.8°F22.1°C 69.3°F20.7°C 92% Calm Calm -- 29.88 in1011.9 mb 0.73 in18.5 mm 0.00 in/hr0.0 mm/hr 2.81 in71.4 mm
11:47 AM 72.0°F22.2°C 69.5°F20.8°C 92% 3.1 mph SE5.0 kmh SE 3.1 mph5.0 kmh 29.88 in1011.9 mb 0.73 in18.5 mm 0.00 in/hr0.0 mm/hr 2.83 in71.9 mm
11:49 AM 72.0°F22.2°C 69.5°F20.8°C 92% Calm Calm 3.1 mph5.0 kmh 29.87 in1011.5 mb 0.73 in18.5 mm 0.00 in/hr0.0 mm/hr 2.83 in71.9 mm
11:51 AM 72.0°F22.2°C 69.5°F20.8°C 92% Calm Calm 3.1 mph5.0 kmh 29.87 in1011.5 mb 0.73 in18.5 mm 0.00 in/hr0.0 mm/hr 2.83 in71.9 mm
11:53 AM 72.0°F22.2°C 69.5°F20.8°C 92% 3.1 mph E5.0 kmh E 3.1 mph5.0 kmh 29.87 in1011.5 mb 0.71 in18.0 mm 0.00 in/hr0.0 mm/hr 2.83 in71.9 mm
11:55 AM 72.0°F22.2°C 69.5°F20.8°C 92% 6.9 mph SE11.1 kmh SE 6.9 mph11.1 kmh 29.87 in1011.5 mb 0.67 in17.0 mm 0.00 in/hr0.0 mm/hr 2.83 in71.9 mm
11:57 AM 72.0°F22.2°C 69.5°F20.8°C 92% Calm Calm 6.9 mph11.1 kmh 29.87 in1011.5 mb 0.65 in16.5 mm 0.00 in/hr0.0 mm/hr 2.86 in72.6 mm
11:59 AM 72.0°F22.2°C 69.5°F20.8°C 92% Calm Calm 6.9 mph11.1 kmh 29.87 in1011.5 mb 0.63 in16.0 mm 0.00 in/hr0.0 mm/hr 2.86 in72.6 mm
12:01 PM 72.0°F22.2°C 69.5°F20.8°C 92% 7.4 mph E11.9 kmh E 7.4 mph11.9 kmh 29.87 in1011.5 mb 0.59 in15.0 mm 0.00 in/hr0.0 mm/hr 2.86 in72.6 mm
12:03 PM 72.0°F22.2°C 69.5°F20.8°C 92% Calm Calm 7.4 mph11.9 kmh 29.87 in1011.5 mb 0.57 in14.5 mm 0.00 in/hr0.0 mm/hr 2.88 in73.2 mm
12:05 PM 72.0°F22.2°C 69.5°F20.8°C 92% 5.6 mph NE9.0 kmh NE 7.4 mph11.9 kmh 29.87 in1011.5 mb 0.57 in14.5 mm 0.00 in/hr0.0 mm/hr 2.90 in73.7 mm
12:07 PM 72.0°F22.2°C 69.5°F20.8°C 92% Calm Calm 7.4 mph11.9 kmh 29.86 in1011.2 mb 0.55 in14.0 mm 0.00 in/hr0.0 mm/hr 2.90 in73.7 mm
12:09 PM 72.0°F22.2°C 69.5°F20.8°C 92% Calm Calm 7.4 mph11.9 kmh 29.87 in1011.5 mb 0.53 in13.5 mm 0.00 in/hr0.0 mm/hr 2.90 in73.7 mm
12:11 PM 72.0°F22.2°C 69.5°F20.8°C 92% Calm Calm 7.4 mph11.9 kmh 29.86 in1011.2 mb 0.53 in13.5 mm 0.00 in/hr0.0 mm/hr 2.92 in74.2 mm
12:13 PM 72.1°F22.3°C 69.7°F20.9°C 92% Calm Calm 5.6 mph9.0 kmh 29.86 in1011.2 mb 0.51 in13.0 mm 0.00 in/hr0.0 mm/hr 2.94 in74.7 mm
12:15 PM 72.1°F22.3°C 69.7°F20.9°C 92% 2.2 mph SE3.5 kmh SE 5.6 mph9.0 kmh 29.86 in1011.2 mb 0.53 in13.5 mm 0.60 in/hr15.2 mm/hr 2.94 in74.7 mm
12:17 PM 72.1°F22.3°C 69.7°F20.9°C 92% 1.6 mph NNE2.6 kmh NNE 2.2 mph3.5 kmh 29.86 in1011.2 mb 0.51 in13.0 mm 0.00 in/hr0.0 mm/hr 2.94 in74.7 mm
12:19 PM 72.1°F22.3°C 69.7°F20.9°C 92% 2.2 mph NE3.5 kmh NE 2.2 mph3.5 kmh 29.86 in1011.2 mb 0.45 in11.4 mm 0.00 in/hr0.0 mm/hr 2.94 in74.7 mm
12:21 PM 72.1°F22.3°C 69.7°F20.9°C 92% 2.2 mph NE3.5 kmh NE 2.2 mph3.5 kmh 29.86 in1011.2 mb 0.43 in10.9 mm 0.00 in/hr0.0 mm/hr 2.94 in74.7 mm
12:23 PM 72.1°F22.3°C 69.7°F20.9°C 92% Calm Calm 2.2 mph3.5 kmh 29.86 in1011.2 mb 0.41 in10.4 mm 0.00 in/hr0.0 mm/hr 2.94 in74.7 mm
12:25 PM 72.1°F22.3°C 69.7°F20.9°C 92% Calm Calm 2.2 mph3.5 kmh 29.86 in1011.2 mb 0.39 in9.9 mm 0.00 in/hr0.0 mm/hr 2.94 in74.7 mm
12:27 PM 72.1°F22.3°C 69.7°F20.9°C 92% 2.2 mph ENE3.5 kmh ENE 2.2 mph3.5 kmh 29.86 in1011.2 mb 0.39 in9.9 mm 0.00 in/hr0.0 mm/hr 2.94 in74.7 mm
12:29 PM 72.1°F22.3°C 69.7°F20.9°C 92% 2.9 mph ESE4.7 kmh ESE 2.9 mph4.7 kmh 29.86 in1011.2 mb 0.37 in9.4 mm 0.00 in/hr0.0 mm/hr 2.96 in75.2 mm
12:31 PM 72.1°F22.3°C 69.7°F20.9°C 92% 1.6 mph SE2.6 kmh SE 2.9 mph4.7 kmh 29.86 in1011.2 mb 0.37 in9.4 mm 0.00 in/hr0.0 mm/hr 2.98 in75.7 mm
12:33 PM 72.1°F22.3°C 69.7°F20.9°C 92% 3.1 mph ESE5.0 kmh ESE 3.1 mph5.0 kmh 29.86 in1011.2 mb 0.37 in9.4 mm 0.00 in/hr0.0 mm/hr 2.98 in75.7 mm
12:35 PM 72.1°F22.3°C 69.7°F20.9°C 92% 1.1 mph E1.8 kmh E 3.1 mph5.0 kmh 29.85 in1010.8 mb 0.37 in9.4 mm 0.00 in/hr0.0 mm/hr 2.98 in75.7 mm
12:37 PM 72.1°F22.3°C 69.7°F20.9°C 92% 1.1 mph E1.8 kmh E 3.1 mph5.0 kmh 29.85 in1010.8 mb 0.33 in8.4 mm 0.00 in/hr0.0 mm/hr 2.98 in75.7 mm
12:39 PM 72.1°F22.3°C 69.7°F20.9°C 92% 1.1 mph ENE1.8 kmh ENE 3.1 mph5.0 kmh 29.85 in1010.8 mb 0.22 in5.6 mm 0.00 in/hr0.0 mm/hr 2.98 in75.7 mm
12:41 PM 72.1°F22.3°C 69.7°F20.9°C 92% 7.6 mph ENE12.2 kmh ENE 7.6 mph12.2 kmh 29.85 in1010.8 mb 0.20 in5.1 mm 0.00 in/hr0.0 mm/hr 2.98 in75.7 mm
12:43 PM 72.1°F22.3°C 69.7°F20.9°C 92% 6.0 mph ENE9.7 kmh ENE 7.6 mph12.2 kmh 29.85 in1010.8 mb 0.18 in4.6 mm 0.00 in/hr0.0 mm/hr 2.98 in75.7 mm
12:45 PM 72.1°F22.3°C 69.7°F20.9°C 92% 5.8 mph E9.3 kmh E 7.6 mph12.2 kmh 29.86 in1011.2 mb 0.16 in4.1 mm 0.00 in/hr0.0 mm/hr 2.98 in75.7 mm
12:47 PM 72.3°F22.4°C 69.9°F21.1°C 92% 5.8 mph ESE9.3 kmh ESE 7.6 mph12.2 kmh 29.85 in1010.8 mb 0.16 in4.1 mm 0.00 in/hr0.0 mm/hr 3.00 in76.2 mm
12:49 PM 72.3°F22.4°C 69.9°F21.1°C 92% 2.9 mph SE4.7 kmh SE 7.6 mph12.2 kmh 29.85 in1010.8 mb 0.16 in4.1 mm 0.00 in/hr0.0 mm/hr 3.00 in76.2 mm
12:51 PM 72.3°F22.4°C 69.9°F21.1°C 92% 2.9 mph SE4.7 kmh SE 7.6 mph12.2 kmh 29.85 in1010.8 mb 0.16 in4.1 mm 0.00 in/hr0.0 mm/hr 3.00 in76.2 mm
03:05 PM 73.0°F22.8°C 69.9°F21.1°C 90% 4.9 mph ESE7.9 kmh ESE 4.9 mph7.9 kmh 29.81 in1009.5 mb 0.04 in1.0 mm 0.05 in/hr1.3 mm/hr 3.14 in79.8 mm
03:07 PM 73.0°F22.8°C 69.9°F21.1°C 90% 4.7 mph SE7.6 kmh SE 4.9 mph7.9 kmh 29.81 in1009.5 mb 0.04 in1.0 mm 0.00 in/hr0.0 mm/hr 3.14 in79.8 mm
03:09 PM 72.9°F22.7°C 69.8°F21.0°C 90% 1.8 mph SSE2.9 kmh SSE 4.9 mph7.9 kmh 29.81 in1009.5 mb 0.04 in1.0 mm 0.00 in/hr0.0 mm/hr 3.14 in79.8 mm
03:11 PM 72.7°F22.6°C 69.6°F20.9°C 90% Calm Calm 4.9 mph7.9 kmh 29.81 in1009.5 mb 0.06 in1.5 mm 0.60 in/hr15.2 mm/hr 3.16 in80.3 mm
03:13 PM 72.7°F22.6°C 69.6°F20.9°C 90% 3.6 mph SSE5.8 kmh SSE 4.9 mph7.9 kmh 29.81 in1009.5 mb 0.08 in2.0 mm 0.60 in/hr15.2 mm/hr 3.18 in80.8 mm
03:15 PM 72.7°F22.6°C 69.6°F20.9°C 90% 2.0 mph SSE3.2 kmh SSE 4.9 mph7.9 kmh 29.81 in1009.5 mb 0.08 in2.0 mm 0.00 in/hr0.0 mm/hr 3.18 in80.8 mm
03:17 PM 72.7°F22.6°C 69.6°F20.9°C 90% Calm Calm 4.7 mph7.6 kmh 29.81 in1009.5 mb 0.08 in2.0 mm 0.00 in/hr0.0 mm/hr 3.18 in80.8 mm
03:19 PM 72.7°F22.6°C 69.6°F20.9°C 90% Calm Calm 3.6 mph5.8 kmh 29.81 in1009.5 mb 0.08 in2.0 mm 0.00 in/hr0.0 mm/hr 3.18 in80.8 mm
03:21 PM 72.7°F22.6°C 69.6°F20.9°C 90% 1.3 mph ESE2.1 kmh ESE 3.6 mph5.8 kmh 29.81 in1009.5 mb 0.10 in2.5 mm 0.60 in/hr15.2 mm/hr 3.20 in81.3 mm
03:23 PM 72.5°F22.5°C 69.4°F20.8°C 90% 7.2 mph ESE11.6 kmh ESE 7.2 mph11.6 kmh 29.81 in1009.5 mb 0.10 in2.5 mm 0.00 in/hr0.0 mm/hr 3.20 in81.3 mm
03:25 PM 72.5°F22.5°C 69.4°F20.8°C 90% Calm Calm 7.2 mph11.6 kmh 29.82 in1009.8 mb 0.10 in2.5 mm 0.00 in/hr0.0 mm/hr 3.20 in81.3 mm
03:27 PM 72.5°F22.5°C 69.4°F20.8°C 90% Calm Calm 7.2 mph11.6 kmh 29.81 in1009.5 mb 0.10 in2.5 mm 0.00 in/hr0.0 mm/hr 3.20 in81.3 mm
03:29 PM 72.5°F22.5°C 69.4°F20.8°C 90% Calm Calm 7.2 mph11.6 kmh 29.81 in1009.5 mb 0.10 in2.5 mm 0.00 in/hr0.0 mm/hr 3.20 in81.3 mm
03:31 PM 72.5°F22.5°C 69.4°F20.8°C 90% Calm Calm 7.2 mph11.6 kmh 29.81 in1009.5 mb 0.12 in3.0 mm 0.60 in/hr15.2 mm/hr 3.22 in81.8 mm
03:33 PM 72.7°F22.6°C 69.9°F21.1°C 91% 2.7 mph E4.3 kmh E 7.2 mph11.6 kmh 29.81 in1009.5 mb 0.12 in3.0 mm 0.00 in/hr0.0 mm/hr 3.22 in81.8 mm
03:35 PM 72.5°F22.5°C 69.7°F20.9°C 91% Calm Calm 2.7 mph4.3 kmh 29.82 in1009.8 mb 0.12 in3.0 mm 0.00 in/hr0.0 mm/hr 3.22 in81.8 mm
03:37 PM 72.5°F22.5°C 69.7°F20.9°C 91% 0.4 mph ESE0.6 kmh ESE 2.7 mph4.3 kmh 29.82 in1009.8 mb 0.12 in3.0 mm 0.00 in/hr0.0 mm/hr 3.22 in81.8 mm
03:39 PM 72.5°F22.5°C 69.7°F20.9°C 91% Calm Calm 2.7 mph4.3 kmh 29.82 in1009.8 mb 0.14 in3.6 mm 0.60 in/hr15.2 mm/hr 3.24 in82.3 mm
03:41 PM 72.5°F22.5°C 69.7°F20.9°C 91% Calm Calm 2.7 mph4.3 kmh 29.82 in1009.8 mb 0.14 in3.6 mm 0.00 in/hr0.0 mm/hr 3.24 in82.3 mm
03:43 PM 72.5°F22.5°C 69.7°F20.9°C 91% Calm Calm 2.7 mph4.3 kmh 29.82 in1009.8 mb 0.14 in3.6 mm 0.00 in/hr0.0 mm/hr 3.24 in82.3 mm
03:45 PM 72.5°F22.5°C 69.7°F20.9°C 91% Calm Calm 0.4 mph0.6 kmh 29.82 in1009.8 mb 0.14 in3.6 mm 0.00 in/hr0.0 mm/hr 3.24 in82.3 mm
03:47 PM 72.5°F22.5°C 69.7°F20.9°C 91% Calm Calm 0.4 mph0.6 kmh 29.82 in1009.8 mb 0.14 in3.6 mm 0.00 in/hr0.0 mm/hr 3.24 in82.3 mm
03:49 PM 72.5°F22.5°C 69.7°F20.9°C 91% Calm Calm -- 29.82 in1009.8 mb 0.10 in2.5 mm 0.00 in/hr0.0 mm/hr 3.24 in82.3 mm
03:51 PM 72.3°F22.4°C 69.5°F20.8°C 91% Calm Calm -- 29.82 in1009.8 mb 0.10 in2.5 mm 0.00 in/hr0.0 mm/hr 3.24 in82.3 mm
03:53 PM 72.5°F22.5°C 69.7°F20.9°C 91% Calm Calm -- 29.81 in1009.5 mb 0.12 in3.0 mm 0.60 in/hr15.2 mm/hr 3.26 in82.8 mm
03:55 PM 72.5°F22.5°C 69.7°F20.9°C 91% Calm Calm -- 29.82 in1009.8 mb 0.12 in3.0 mm 0.00 in/hr0.0 mm/hr 3.28 in83.3 mm
03:57 PM 72.3°F22.4°C 69.5°F20.8°C 91% Calm Calm -- 29.81 in1009.5 mb 0.14 in3.6 mm 0.60 in/hr15.2 mm/hr 3.28 in83.3 mm
03:59 PM 72.3°F22.4°C 69.5°F20.8°C 91% Calm Calm -- 29.82 in1009.8 mb 0.14 in3.6 mm 0.00 in/hr0.0 mm/hr 3.28 in83.3 mm
04:01 PM 72.5°F22.5°C 69.7°F20.9°C 91% Calm Calm -- 29.82 in1009.8 mb 0.14 in3.6 mm 0.00 in/hr0.0 mm/hr 3.28 in83.3 mm
04:03 PM 72.5°F22.5°C 69.7°F20.9°C 91% Calm Calm -- 29.82 in1009.8 mb 0.14 in3.6 mm 0.00 in/hr0.0 mm/hr 3.28 in83.3 mm
04:05 PM 72.5°F22.5°C 69.7°F20.9°C 91% Calm Calm -- 29.82 in1009.8 mb 0.16 in4.1 mm 0.60 in/hr15.2 mm/hr 3.30 in83.8 mm
04:07 PM 72.3°F22.4°C 69.5°F20.8°C 91% Calm Calm -- 29.82 in1009.8 mb 0.16 in4.1 mm 0.00 in/hr0.0 mm/hr 3.30 in83.8 mm
04:09 PM 72.5°F22.5°C 69.7°F20.9°C 91% Calm Calm -- 29.82 in1009.8 mb 0.16 in4.1 mm 0.00 in/hr0.0 mm/hr 3.30 in83.8 mm
04:11 PM 72.5°F22.5°C 69.7°F20.9°C 91% Calm Calm -- 29.82 in1009.8 mb 0.16 in4.1 mm 0.00 in/hr0.0 mm/hr 3.32 in84.3 mm
04:13 PM 72.5°F22.5°C 69.7°F20.9°C 91% 1.1 mph SE1.8 kmh SE 1.1 mph1.8 kmh 29.82 in1009.8 mb 0.16 in4.1 mm 0.00 in/hr0.0 mm/hr 3.34 in84.8 mm
04:15 PM 72.5°F22.5°C 69.7°F20.9°C 91% Calm Calm 1.1 mph1.8 kmh 29.82 in1009.8 mb 0.16 in4.1 mm 0.00 in/hr0.0 mm/hr 3.34 in84.8 mm
04:17 PM 72.3°F22.4°C 69.5°F20.8°C 91% Calm Calm 1.1 mph1.8 kmh 29.82 in1009.8 mb 0.16 in4.1 mm 0.00 in/hr0.0 mm/hr 3.34 in84.8 mm
04:19 PM 72.3°F22.4°C 69.5°F20.8°C 91% Calm Calm 1.1 mph1.8 kmh 29.81 in1009.5 mb 0.18 in4.6 mm 0.60 in/hr15.2 mm/hr 3.36 in85.3 mm
04:21 PM 72.3°F22.4°C 69.5°F20.8°C 91% Calm Calm 1.1 mph1.8 kmh 29.82 in1009.8 mb 0.18 in4.6 mm 0.00 in/hr0.0 mm/hr 3.38 in85.9 mm
04:23 PM 72.5°F22.5°C 69.7°F20.9°C 91% 2.0 mph SE3.2 kmh SE 2.0 mph3.2 kmh 29.82 in1009.8 mb 0.18 in4.6 mm 0.00 in/hr0.0 mm/hr 3.38 in85.9 mm
04:25 PM 72.3°F22.4°C 69.5°F20.8°C 91% Calm Calm 2.0 mph3.2 kmh 29.82 in1009.8 mb 0.18 in4.6 mm 0.00 in/hr0.0 mm/hr 3.38 in85.9 mm
04:27 PM 72.5°F22.5°C 69.7°F20.9°C 91% Calm Calm 2.0 mph3.2 kmh 29.82 in1009.8 mb 0.18 in4.6 mm 0.00 in/hr0.0 mm/hr 3.38 in85.9 mm
04:29 PM 72.5°F22.5°C 69.7°F20.9°C 91% Calm Calm 2.0 mph3.2 kmh 29.82 in1009.8 mb 0.16 in4.1 mm 0.00 in/hr0.0 mm/hr 3.38 in85.9 mm
04:31 PM 72.5°F22.5°C 69.7°F20.9°C 91% Calm Calm 2.0 mph3.2 kmh 29.81 in1009.5 mb 0.18 in4.6 mm 0.60 in/hr15.2 mm/hr 3.40 in86.4 mm
04:33 PM 72.5°F22.5°C 69.7°F20.9°C 91% Calm Calm 2.0 mph3.2 kmh 29.81 in1009.5 mb 0.18 in4.6 mm 0.00 in/hr0.0 mm/hr 3.40 in86.4 mm
04:35 PM 72.5°F22.5°C 69.7°F20.9°C 91% Calm Calm -- 29.81 in1009.5 mb 0.18 in4.6 mm 0.00 in/hr0.0 mm/hr 3.40 in86.4 mm
04:37 PM 72.3°F22.4°C 69.5°F20.8°C 91% 2.2 mph E3.5 kmh E 2.2 mph3.5 kmh 29.82 in1009.8 mb 0.18 in4.6 mm 0.00 in/hr0.0 mm/hr 3.40 in86.4 mm
04:39 PM 72.3°F22.4°C 69.5°F20.8°C 91% 4.7 mph E7.6 kmh E 4.7 mph7.6 kmh 29.81 in1009.5 mb 0.18 in4.6 mm 0.00 in/hr0.0 mm/hr 3.42 in86.9 mm
04:41 PM 72.3°F22.4°C 69.9°F21.1°C 92% 3.4 mph E5.5 kmh E 4.7 mph7.6 kmh 29.82 in1009.8 mb 0.18 in4.6 mm 0.00 in/hr0.0 mm/hr 3.42 in86.9 mm
04:43 PM 72.3°F22.4°C 69.5°F20.8°C 91% 3.1 mph E5.0 kmh E 4.7 mph7.6 kmh 29.82 in1009.8 mb 0.20 in5.1 mm 0.60 in/hr15.2 mm/hr 3.44 in87.4 mm
04:45 PM 72.3°F22.4°C 69.5°F20.8°C 91% Calm Calm 4.7 mph7.6 kmh 29.82 in1009.8 mb 0.20 in5.1 mm 0.00 in/hr0.0 mm/hr 3.44 in87.4 mm
04:47 PM 72.3°F22.4°C 69.5°F20.8°C 91% Calm Calm 4.7 mph7.6 kmh 29.82 in1009.8 mb 0.22 in5.6 mm 0.60 in/hr15.2 mm/hr 3.47 in88.1 mm
04:49 PM 72.1°F22.3°C 69.4°F20.8°C 91% Calm Calm 4.7 mph7.6 kmh 29.82 in1009.8 mb 0.22 in5.6 mm 0.00 in/hr0.0 mm/hr 3.47 in88.1 mm
04:51 PM 72.1°F22.3°C 69.4°F20.8°C 91% Calm Calm 3.4 mph5.5 kmh 29.82 in1009.8 mb 0.22 in5.6 mm 0.00 in/hr0.0 mm/hr 3.47 in88.1 mm
04:53 PM 72.1°F22.3°C 69.4°F20.8°C 91% Calm Calm 3.1 mph5.0 kmh 29.81 in1009.5 mb 0.20 in5.1 mm 0.00 in/hr0.0 mm/hr 3.47 in88.1 mm
04:55 PM 72.1°F22.3°C 69.4°F20.8°C 91% Calm Calm -- 29.82 in1009.8 mb 0.18 in4.6 mm 0.00 in/hr0.0 mm/hr 3.47 in88.1 mm
04:57 PM 72.0°F22.2°C 69.2°F20.7°C 91% Calm Calm -- 29.82 in1009.8 mb 0.18 in4.6 mm 0.00 in/hr0.0 mm/hr 3.47 in88.1 mm
04:59 PM 72.0°F22.2°C 69.2°F20.7°C 91% Calm Calm -- 29.82 in1009.8 mb 0.18 in4.6 mm 0.00 in/hr0.0 mm/hr 3.47 in88.1 mm
05:01 PM 72.0°F22.2°C 69.2°F20.7°C 91% Calm Calm -- 29.82 in1009.8 mb 0.18 in4.6 mm 0.00 in/hr0.0 mm/hr 3.47 in88.1 mm
05:03 PM 72.0°F22.2°C 69.2°F20.7°C 91% Calm Calm -- 29.82 in1009.8 mb 0.18 in4.6 mm 0.00 in/hr0.0 mm/hr 3.47 in88.1 mm
05:05 PM 72.0°F22.2°C 69.2°F20.7°C 91% Calm Calm -- 29.82 in1009.8 mb 0.18 in4.6 mm 0.00 in/hr0.0 mm/hr 3.49 in88.6 mm
05:07 PM 71.8°F22.1°C 69.0°F20.6°C 91% Calm Calm -- 29.81 in1009.5 mb 0.18 in4.6 mm 0.00 in/hr0.0 mm/hr 3.49 in88.6 mm
05:09 PM 71.8°F22.1°C 69.0°F20.6°C 91% Calm Calm -- 29.81 in1009.5 mb 0.18 in4.6 mm 0.00 in/hr0.0 mm/hr 3.49 in88.6 mm
05:11 PM 71.8°F22.1°C 69.0°F20.6°C 91% Calm Calm -- 29.81 in1009.5 mb 0.16 in4.1 mm 0.00 in/hr0.0 mm/hr 3.49 in88.6 mm
05:13 PM 71.8°F22.1°C 69.0°F20.6°C 91% 8.1 mph SSE13.0 kmh SSE 8.1 mph13.0 kmh 29.81 in1009.5 mb 0.16 in4.1 mm 0.00 in/hr0.0 mm/hr 3.51 in89.2 mm
05:15 PM 71.8°F22.1°C 69.0°F20.6°C 91% Calm Calm 8.1 mph13.0 kmh 29.81 in1009.5 mb 0.16 in4.1 mm 0.00 in/hr0.0 mm/hr 3.51 in89.2 mm
05:17 PM 71.8°F22.1°C 69.0°F20.6°C 91% Calm Calm 8.1 mph13.0 kmh 29.81 in1009.5 mb 0.16 in4.1 mm 0.00 in/hr0.0 mm/hr 3.51 in89.2 mm
05:19 PM 71.8°F22.1°C 69.0°F20.6°C 91% 6.5 mph SSE10.5 kmh SSE 8.1 mph13.0 kmh 29.81 in1009.5 mb 0.14 in3.6 mm 0.00 in/hr0.0 mm/hr 3.51 in89.2 mm
05:21 PM 71.8°F22.1°C 69.0°F20.6°C 91% Calm Calm 8.1 mph13.0 kmh 29.81 in1009.5 mb 0.12 in3.0 mm 0.00 in/hr0.0 mm/hr 3.51 in89.2 mm
05:23 PM 71.8°F22.1°C 69.0°F20.6°C 91% Calm Calm 8.1 mph13.0 kmh 29.81 in1009.5 mb 0.12 in3.0 mm 0.00 in/hr0.0 mm/hr 3.51 in89.2 mm
05:25 PM 71.6°F22.0°C 68.8°F20.4°C 91% Calm Calm 6.5 mph10.5 kmh 29.81 in1009.5 mb 0.12 in3.0 mm 0.00 in/hr0.0 mm/hr 3.51 in89.2 mm
05:27 PM 71.8°F22.1°C 69.0°F20.6°C 91% Calm Calm 6.5 mph10.5 kmh 29.81 in1009.5 mb 0.12 in3.0 mm 0.00 in/hr0.0 mm/hr 3.51 in89.2 mm
05:29 PM 71.8°F22.1°C 69.0°F20.6°C 91% Calm Calm 6.5 mph10.5 kmh 29.81 in1009.5 mb 0.12 in3.0 mm 0.00 in/hr0.0 mm/hr 3.51 in89.2 mm
05:31 PM 71.8°F22.1°C 69.0°F20.6°C 91% Calm Calm -- 29.81 in1009.5 mb 0.12 in3.0 mm 0.00 in/hr0.0 mm/hr 3.53 in89.7 mm
05:33 PM 71.6°F22.0°C 68.8°F20.4°C 91% 2.2 mph ESE3.5 kmh ESE 2.2 mph3.5 kmh 29.81 in1009.5 mb 0.12 in3.0 mm 0.00 in/hr0.0 mm/hr 3.53 in89.7 mm
05:35 PM 71.8°F22.1°C 69.3°F20.7°C 92% 2.2 mph ESE3.5 kmh ESE 2.2 mph3.5 kmh 29.82 in1009.8 mb 0.12 in3.0 mm 0.00 in/hr0.0 mm/hr 3.53 in89.7 mm
05:37 PM 71.8°F22.1°C 69.3°F20.7°C 92% 1.1 mph ESE1.8 kmh ESE 2.2 mph3.5 kmh 29.81 in1009.5 mb 0.10 in2.5 mm 0.00 in/hr0.0 mm/hr 3.53 in89.7 mm
05:39 PM 71.6°F22.0°C 69.2°F20.7°C 92% Calm Calm 2.2 mph3.5 kmh 29.82 in1009.8 mb 0.12 in3.0 mm 0.60 in/hr15.2 mm/hr 3.55 in90.2 mm
05:41 PM 71.6°F22.0°C 69.2°F20.7°C 92% Calm Calm 2.2 mph3.5 kmh 29.82 in1009.8 mb 0.14 in3.6 mm 0.60 in/hr15.2 mm/hr 3.57 in90.7 mm
05:43 PM 71.4°F21.9°C 69.0°F20.6°C 92% Calm Calm 2.2 mph3.5 kmh 29.82 in1009.8 mb 0.12 in3.0 mm 0.00 in/hr0.0 mm/hr 3.57 in90.7 mm
05:45 PM 71.4°F21.9°C 69.0°F20.6°C 92% Calm Calm 2.2 mph3.5 kmh 29.82 in1009.8 mb 0.12 in3.0 mm 0.00 in/hr0.0 mm/hr 3.57 in90.7 mm
05:47 PM 71.6°F22.0°C 69.2°F20.7°C 92% Calm Calm 1.1 mph1.8 kmh 29.82 in1009.8 mb 0.12 in3.0 mm 0.00 in/hr0.0 mm/hr 3.59 in91.2 mm
05:49 PM 71.4°F21.9°C 69.0°F20.6°C 92% Calm Calm -- 29.82 in1009.8 mb 0.14 in3.6 mm 0.60 in/hr15.2 mm/hr 3.61 in91.7 mm
05:51 PM 71.6°F22.0°C 69.2°F20.7°C 92% Calm Calm -- 29.82 in1009.8 mb 0.14 in3.6 mm 0.00 in/hr0.0 mm/hr 3.61 in91.7 mm
05:53 PM 71.8°F22.1°C 69.3°F20.7°C 92% Calm Calm -- 29.82 in1009.8 mb 0.14 in3.6 mm 0.00 in/hr0.0 mm/hr 3.61 in91.7 mm
05:55 PM 71.4°F21.9°C 69.0°F20.6°C 92% Calm Calm -- 29.82 in1009.8 mb 0.14 in3.6 mm 0.00 in/hr0.0 mm/hr 3.63 in92.2 mm
05:57 PM 71.6°F22.0°C 69.2°F20.7°C 92% Calm Calm -- 29.82 in1009.8 mb 0.16 in4.1 mm 0.60 in/hr15.2 mm/hr 3.63 in92.2 mm
05:59 PM 71.6°F22.0°C 69.2°F20.7°C 92% Calm Calm -- 29.82 in1009.8 mb 0.16 in4.1 mm 0.00 in/hr0.0 mm/hr 3.63 in92.2 mm
06:01 PM 71.6°F22.0°C 69.2°F20.7°C 92% Calm Calm -- 29.82 in1009.8 mb 0.16 in4.1 mm 0.00 in/hr0.0 mm/hr 3.63 in92.2 mm
06:03 PM 71.6°F22.0°C 69.2°F20.7°C 92% 4.0 mph NE6.4 kmh NE 4.0 mph6.4 kmh 29.82 in1009.8 mb 0.16 in4.1 mm 0.00 in/hr0.0 mm/hr 3.65 in92.7 mm
06:05 PM 71.4°F21.9°C 69.0°F20.6°C 92% Calm Calm 4.0 mph6.4 kmh 29.82 in1009.8 mb 0.18 in4.6 mm 0.60 in/hr15.2 mm/hr 3.67 in93.2 mm
06:07 PM 71.4°F21.9°C 69.0°F20.6°C 92% Calm Calm 4.0 mph6.4 kmh 29.82 in1009.8 mb 0.18 in4.6 mm 0.00 in/hr0.0 mm/hr 3.67 in93.2 mm
06:09 PM 71.6°F22.0°C 69.2°F20.7°C 92% Calm Calm 4.0 mph6.4 kmh 29.82 in1009.8 mb 0.18 in4.6 mm 0.00 in/hr0.0 mm/hr 3.67 in93.2 mm
06:11 PM 71.6°F22.0°C 69.2°F20.7°C 92% Calm Calm 4.0 mph6.4 kmh 29.82 in1009.8 mb 0.20 in5.1 mm 0.60 in/hr15.2 mm/hr 3.69 in93.7 mm
06:13 PM 71.6°F22.0°C 69.2°F20.7°C 92% Calm Calm 4.0 mph6.4 kmh 29.83 in1010.2 mb 0.20 in5.1 mm 0.00 in/hr0.0 mm/hr 3.71 in94.2 mm
06:15 PM 71.6°F22.0°C 69.5°F20.8°C 93% Calm Calm -- 29.83 in1010.2 mb 0.20 in5.1 mm 0.00 in/hr0.0 mm/hr 3.71 in94.2 mm
06:17 PM 71.6°F22.0°C 69.5°F20.8°C 93% Calm Calm -- 29.83 in1010.2 mb 0.20 in5.1 mm 0.00 in/hr0.0 mm/hr 3.71 in94.2 mm
06:19 PM 71.8°F22.1°C 69.6°F20.9°C 93% 3.8 mph SE6.1 kmh SE 3.8 mph6.1 kmh 29.83 in1010.2 mb 0.20 in5.1 mm 0.00 in/hr0.0 mm/hr 3.71 in94.2 mm
06:21 PM 71.6°F22.0°C 69.5°F20.8°C 93% Calm Calm 3.8 mph6.1 kmh 29.83 in1010.2 mb 0.22 in5.6 mm 0.60 in/hr15.2 mm/hr 3.73 in94.7 mm
06:23 PM 71.8°F22.1°C 69.6°F20.9°C 93% 5.6 mph SE9.0 kmh SE 5.6 mph9.0 kmh 29.83 in1010.2 mb 0.22 in5.6 mm 0.00 in/hr0.0 mm/hr 3.73 in94.7 mm
06:25 PM 71.8°F22.1°C 69.6°F20.9°C 93% Calm Calm 5.6 mph9.0 kmh 29.83 in1010.2 mb 0.22 in5.6 mm 0.00 in/hr0.0 mm/hr 3.73 in94.7 mm
06:27 PM 71.8°F22.1°C 69.6°F20.9°C 93% Calm Calm 5.6 mph9.0 kmh 29.83 in1010.2 mb 0.22 in5.6 mm 0.00 in/hr0.0 mm/hr 3.73 in94.7 mm
06:29 PM 71.8°F22.1°C 69.6°F20.9°C 93% Calm Calm 5.6 mph9.0 kmh 29.83 in1010.2 mb 0.20 in5.1 mm 0.00 in/hr0.0 mm/hr 3.73 in94.7 mm
06:31 PM 71.8°F22.1°C 69.6°F20.9°C 93% 1.1 mph E1.8 kmh E 5.6 mph9.0 kmh 29.83 in1010.2 mb 0.20 in5.1 mm 0.00 in/hr0.0 mm/hr 3.73 in94.7 mm
06:33 PM 71.8°F22.1°C 69.6°F20.9°C 93% Calm Calm 5.6 mph9.0 kmh 29.82 in1009.8 mb 0.20 in5.1 mm 0.00 in/hr0.0 mm/hr 3.73 in94.7 mm
06:35 PM 71.8°F22.1°C 69.6°F20.9°C 93% Calm Calm 1.1 mph1.8 kmh 29.83 in1010.2 mb 0.20 in5.1 mm 0.00 in/hr0.0 mm/hr 3.73 in94.7 mm
06:37 PM 71.8°F22.1°C 69.6°F20.9°C 93% Calm Calm 1.1 mph1.8 kmh 29.83 in1010.2 mb 0.20 in5.1 mm 0.00 in/hr0.0 mm/hr 3.73 in94.7 mm
06:39 PM 71.8°F22.1°C 69.6°F20.9°C 93% Calm Calm 1.1 mph1.8 kmh 29.82 in1009.8 mb 0.18 in4.6 mm 0.00 in/hr0.0 mm/hr 3.73 in94.7 mm
06:41 PM 72.0°F22.2°C 69.8°F21.0°C 93% Calm Calm 1.1 mph1.8 kmh 29.83 in1010.2 mb 0.16 in4.1 mm 0.00 in/hr0.0 mm/hr 3.73 in94.7 mm
06:43 PM 72.0°F22.2°C 69.8°F21.0°C 93% Calm Calm -- 29.83 in1010.2 mb 0.16 in4.1 mm 0.00 in/hr0.0 mm/hr 3.73 in94.7 mm
06:45 PM 72.1°F22.3°C 70.0°F21.1°C 93% Calm Calm -- 29.83 in1010.2 mb 0.16 in4.1 mm 0.00 in/hr0.0 mm/hr 3.73 in94.7 mm
06:47 PM 72.1°F22.3°C 70.0°F21.1°C 93% 2.0 mph ENE3.2 kmh ENE 2.0 mph3.2 kmh 29.83 in1010.2 mb 0.14 in3.6 mm 0.00 in/hr0.0 mm/hr 3.73 in94.7 mm
06:49 PM 72.1°F22.3°C 70.0°F21.1°C 93% Calm Calm 2.0 mph3.2 kmh 29.83 in1010.2 mb 0.12 in3.0 mm 0.00 in/hr0.0 mm/hr 3.73 in94.7 mm
06:51 PM 72.3°F22.4°C 70.2°F21.2°C 93% 4.5 mph E7.2 kmh E 4.5 mph7.2 kmh 29.83 in1010.2 mb 0.12 in3.0 mm 0.00 in/hr0.0 mm/hr 3.73 in94.7 mm
06:53 PM 72.3°F22.4°C 70.2°F21.2°C 93% Calm Calm 4.5 mph7.2 kmh 29.83 in1010.2 mb 0.12 in3.0 mm 0.00 in/hr0.0 mm/hr 3.73 in94.7 mm
06:55 PM 72.3°F22.4°C 69.9°F21.1°C 92% Calm Calm 4.5 mph7.2 kmh 29.83 in1010.2 mb 0.12 in3.0 mm 0.00 in/hr0.0 mm/hr 3.75 in95.3 mm
06:57 PM 72.3°F22.4°C 69.9°F21.1°C 92% Calm Calm 4.5 mph7.2 kmh 29.83 in1010.2 mb 0.12 in3.0 mm 0.00 in/hr0.0 mm/hr 3.75 in95.3 mm
06:59 PM 72.3°F22.4°C 69.9°F21.1°C 92% Calm Calm 4.5 mph7.2 kmh 29.83 in1010.2 mb 0.12 in3.0 mm 0.00 in/hr0.0 mm/hr 3.75 in95.3 mm
07:01 PM 72.3°F22.4°C 69.9°F21.1°C 92% Calm Calm 4.5 mph7.2 kmh 29.83 in1010.2 mb 0.12 in3.0 mm 0.00 in/hr0.0 mm/hr 3.75 in95.3 mm
07:03 PM 72.3°F22.4°C 69.9°F21.1°C 92% Calm Calm -- 29.83 in1010.2 mb 0.08 in2.0 mm 0.00 in/hr0.0 mm/hr 3.75 in95.3 mm
07:05 PM 72.3°F22.4°C 69.9°F21.1°C 92% Calm Calm -- 29.83 in1010.2 mb 0.08 in2.0 mm 0.00 in/hr0.0 mm/hr 3.75 in95.3 mm
07:07 PM 72.3°F22.4°C 69.9°F21.1°C 92% 4.3 mph ENE6.9 kmh ENE 4.3 mph6.9 kmh 29.83 in1010.2 mb 0.08 in2.0 mm 0.00 in/hr0.0 mm/hr 3.75 in95.3 mm
07:09 PM 72.3°F22.4°C 69.9°F21.1°C 92% 1.6 mph ENE2.6 kmh ENE 4.3 mph6.9 kmh 29.83 in1010.2 mb 0.08 in2.0 mm 0.00 in/hr0.0 mm/hr 3.75 in95.3 mm
07:11 PM 72.3°F22.4°C 69.9°F21.1°C 92% Calm Calm 4.3 mph6.9 kmh 29.83 in1010.2 mb 0.06 in1.5 mm 0.00 in/hr0.0 mm/hr 3.75 in95.3 mm
07:13 PM 72.3°F22.4°C 69.5°F20.8°C 91% Calm Calm 4.3 mph6.9 kmh 29.83 in1010.2 mb 0.04 in1.0 mm 0.00 in/hr0.0 mm/hr 3.75 in95.3 mm
07:15 PM 72.3°F22.4°C 69.5°F20.8°C 91% Calm Calm 4.3 mph6.9 kmh 29.83 in1010.2 mb 0.04 in1.0 mm 0.00 in/hr0.0 mm/hr 3.75 in95.3 mm
07:17 PM 72.1°F22.3°C 69.4°F20.8°C 91% 3.4 mph NE5.5 kmh NE 4.3 mph6.9 kmh 29.83 in1010.2 mb 0.04 in1.0 mm 0.00 in/hr0.0 mm/hr 3.75 in95.3 mm
07:19 PM 72.1°F22.3°C 69.4°F20.8°C 91% Calm Calm 3.4 mph5.5 kmh 29.83 in1010.2 mb 0.04 in1.0 mm 0.00 in/hr0.0 mm/hr 3.75 in95.3 mm
07:21 PM 72.1°F22.3°C 69.4°F20.8°C 91% Calm Calm 3.4 mph5.5 kmh 29.83 in1010.2 mb 0.02 in0.5 mm 0.00 in/hr0.0 mm/hr 3.75 in95.3 mm
07:23 PM 72.1°F22.3°C 69.4°F20.8°C 91% Calm Calm 3.4 mph5.5 kmh 29.83 in1010.2 mb 0.02 in0.5 mm 0.00 in/hr0.0 mm/hr 3.75 in95.3 mm
07:25 PM 72.1°F22.3°C 69.4°F20.8°C 91% 7.8 mph NNE12.6 kmh NNE 7.8 mph12.6 kmh 29.83 in1010.2 mb 0.02 in0.5 mm 0.00 in/hr0.0 mm/hr 3.75 in95.3 mm
07:27 PM 72.1°F22.3°C 69.4°F20.8°C 91% 1.1 mph SE1.8 kmh SE 7.8 mph12.6 kmh 29.83 in1010.2 mb 0.02 in0.5 mm 0.00 in/hr0.0 mm/hr 3.75 in95.3 mm
07:29 PM 72.1°F22.3°C 69.4°F20.8°C 91% 1.1 mph SE1.8 kmh SE 7.8 mph12.6 kmh 29.83 in1010.2 mb 0.02 in0.5 mm 0.00 in/hr0.0 mm/hr 3.75 in95.3 mm
07:31 PM 72.1°F22.3°C 69.4°F20.8°C 91% Calm Calm 7.8 mph12.6 kmh 29.83 in1010.2 mb 0.02 in0.5 mm 0.00 in/hr0.0 mm/hr 3.75 in95.3 mm
07:33 PM 72.0°F22.2°C 69.2°F20.7°C 91% Calm Calm 7.8 mph12.6 kmh 29.83 in1010.2 mb 0.02 in0.5 mm 0.00 in/hr0.0 mm/hr 3.75 in95.3 mm
07:35 PM 72.0°F22.2°C 69.2°F20.7°C 91% Calm Calm 7.8 mph12.6 kmh 29.83 in1010.2 mb 0.02 in0.5 mm 0.00 in/hr0.0 mm/hr 3.75 in95.3 mm
07:37 PM 72.0°F22.2°C 69.2°F20.7°C 91% Calm Calm 1.1 mph1.8 kmh 29.83 in1010.2 mb 0.02 in0.5 mm 0.00 in/hr0.0 mm/hr 3.75 in95.3 mm
07:39 PM 71.8°F22.1°C 69.0°F20.6°C 91% Calm Calm 1.1 mph1.8 kmh 29.83 in1010.2 mb 0.02 in0.5 mm 0.00 in/hr0.0 mm/hr 3.75 in95.3 mm
07:41 PM 71.8°F22.1°C 69.0°F20.6°C 91% Calm Calm -- 29.83 in1010.2 mb 0.02 in0.5 mm 0.00 in/hr0.0 mm/hr 3.75 in95.3 mm
07:43 PM 72.0°F22.2°C 69.2°F20.7°C 91% Calm Calm -- 29.83 in1010.2 mb 0.02 in0.5 mm 0.00 in/hr0.0 mm/hr 3.75 in95.3 mm
07:45 PM 72.0°F22.2°C 69.2°F20.7°C 91% 2.0 mph ENE3.2 kmh ENE 2.0 mph3.2 kmh 29.83 in1010.2 mb 0.02 in0.5 mm 0.00 in/hr0.0 mm/hr 3.75 in95.3 mm
07:47 PM 72.0°F22.2°C 69.2°F20.7°C 91% 2.0 mph ENE3.2 kmh ENE 2.0 mph3.2 kmh 29.83 in1010.2 mb 0.02 in0.5 mm 0.00 in/hr0.0 mm/hr 3.75 in95.3 mm
07:49 PM 72.0°F22.2°C 69.2°F20.7°C 91% 2.0 mph ENE3.2 kmh ENE 2.0 mph3.2 kmh 29.83 in1010.2 mb 0.02 in0.5 mm 0.00 in/hr0.0 mm/hr 3.75 in95.3 mm
07:51 PM 71.8°F22.1°C 69.0°F20.6°C 91% Calm Calm 2.0 mph3.2 kmh 29.83 in1010.2 mb 0.02 in0.5 mm 0.00 in/hr0.0 mm/hr 3.75 in95.3 mm
07:53 PM 71.8°F22.1°C 69.0°F20.6°C 91% Calm Calm 2.0 mph3.2 kmh 29.83 in1010.2 mb 0.02 in0.5 mm 0.00 in/hr0.0 mm/hr 3.75 in95.3 mm
07:55 PM 71.8°F22.1°C 69.3°F20.7°C 92% Calm Calm 2.0 mph3.2 kmh 29.83 in1010.2 mb 0.00 in0.0 mm 0.00 in/hr0.0 mm/hr 3.77 in95.8 mm
07:57 PM 71.8°F22.1°C 69.3°F20.7°C 92% Calm Calm 2.0 mph3.2 kmh 29.83 in1010.2 mb 0.02 in0.5 mm 0.60 in/hr15.2 mm/hr 3.77 in95.8 mm
07:59 PM 71.8°F22.1°C 69.3°F20.7°C 92% Calm Calm 2.0 mph3.2 kmh 29.83 in1010.2 mb 0.02 in0.5 mm 0.00 in/hr0.0 mm/hr 3.77 in95.8 mm
08:01 PM 72.0°F22.2°C 69.5°F20.8°C 92% 0.7 mph ESE1.1 kmh ESE 0.7 mph1.1 kmh 29.83 in1010.2 mb 0.02 in0.5 mm 0.00 in/hr0.0 mm/hr 3.77 in95.8 mm
08:03 PM 71.8°F22.1°C 69.3°F20.7°C 92% Calm Calm 0.7 mph1.1 kmh 29.83 in1010.2 mb 0.02 in0.5 mm 0.00 in/hr0.0 mm/hr 3.77 in95.8 mm
08:05 PM 71.8°F22.1°C 69.3°F20.7°C 92% Calm Calm 0.7 mph1.1 kmh 29.83 in1010.2 mb 0.02 in0.5 mm 0.00 in/hr0.0 mm/hr 3.77 in95.8 mm
08:07 PM 72.0°F22.2°C 69.5°F20.8°C 92% Calm Calm 0.7 mph1.1 kmh 29.83 in1010.2 mb 0.02 in0.5 mm 0.00 in/hr0.0 mm/hr 3.77 in95.8 mm
08:09 PM 72.0°F22.2°C 69.5°F20.8°C 92% Calm Calm 0.7 mph1.1 kmh 29.83 in1010.2 mb 0.06 in1.5 mm 1.20 in/hr30.5 mm/hr 3.81 in96.8 mm
08:11 PM 72.0°F22.2°C 69.5°F20.8°C 92% Calm Calm 0.7 mph1.1 kmh 29.83 in1010.2 mb 0.08 in2.0 mm 0.60 in/hr15.2 mm/hr 3.83 in97.3 mm
08:13 PM 72.0°F22.2°C 69.5°F20.8°C 92% 0.4 mph NNE0.6 kmh NNE 0.4 mph0.6 kmh 29.83 in1010.2 mb 0.12 in3.0 mm 1.20 in/hr30.5 mm/hr 3.87 in98.3 mm
08:15 PM 72.0°F22.2°C 69.5°F20.8°C 92% 2.0 mph NE3.2 kmh NE 2.0 mph3.2 kmh 29.83 in1010.2 mb 0.12 in3.0 mm 0.00 in/hr0.0 mm/hr 3.87 in98.3 mm
08:17 PM 72.0°F22.2°C 69.5°F20.8°C 92% 1.1 mph NE1.8 kmh NE 2.0 mph3.2 kmh 29.85 in1010.8 mb 0.12 in3.0 mm 0.00 in/hr0.0 mm/hr 3.87 in98.3 mm
08:19 PM 72.0°F22.2°C 69.5°F20.8°C 92% 7.4 mph NE11.9 kmh NE 7.4 mph11.9 kmh 29.85 in1010.8 mb 0.14 in3.6 mm 0.60 in/hr15.2 mm/hr 3.89 in98.8 mm
08:21 PM 72.0°F22.2°C 69.5°F20.8°C 92% 4.5 mph ENE7.2 kmh ENE 7.4 mph11.9 kmh 29.84 in1010.5 mb 0.24 in6.1 mm 3.00 in/hr76.2 mm/hr 4.00 in101.6 mm
08:23 PM 72.0°F22.2°C 69.5°F20.8°C 92% 4.3 mph ENE6.9 kmh ENE 7.4 mph11.9 kmh 29.84 in1010.5 mb 0.29 in7.4 mm 1.50 in/hr38.1 mm/hr 4.04 in102.6 mm
08:25 PM 72.0°F22.2°C 69.5°F20.8°C 92% Calm Calm 7.4 mph11.9 kmh 29.84 in1010.5 mb 0.29 in7.4 mm 0.00 in/hr0.0 mm/hr 4.06 in103.1 mm
08:27 PM 71.8°F22.1°C 69.3°F20.7°C 92% 5.4 mph NE8.7 kmh NE 7.4 mph11.9 kmh 29.84 in1010.5 mb 0.31 in7.9 mm 0.60 in/hr15.2 mm/hr 4.06 in103.1 mm
08:29 PM 71.8°F22.1°C 69.3°F20.7°C 92% 5.4 mph NE8.7 kmh NE 7.4 mph11.9 kmh 29.84 in1010.5 mb 0.31 in7.9 mm 0.00 in/hr0.0 mm/hr 4.06 in103.1 mm
08:31 PM 71.8°F22.1°C 69.3°F20.7°C 92% Calm Calm 5.4 mph8.7 kmh 29.84 in1010.5 mb 0.35 in8.9 mm 1.20 in/hr30.5 mm/hr 4.10 in104.1 mm
08:33 PM 71.8°F22.1°C 69.3°F20.7°C 92% Calm Calm 5.4 mph8.7 kmh 29.84 in1010.5 mb 0.37 in9.4 mm 0.60 in/hr15.2 mm/hr 4.12 in104.6 mm
08:35 PM 71.8°F22.1°C 69.3°F20.7°C 92% Calm Calm 5.4 mph8.7 kmh 29.84 in1010.5 mb 0.37 in9.4 mm 0.00 in/hr0.0 mm/hr 4.12 in104.6 mm
08:37 PM 71.8°F22.1°C 69.3°F20.7°C 92% 0.9 mph ENE1.4 kmh ENE 5.4 mph8.7 kmh 29.84 in1010.5 mb 0.37 in9.4 mm 0.00 in/hr0.0 mm/hr 4.12 in104.6 mm
08:39 PM 71.8°F22.1°C 69.6°F20.9°C 93% 1.3 mph E2.1 kmh E 5.4 mph8.7 kmh 29.84 in1010.5 mb 0.39 in9.9 mm 0.60 in/hr15.2 mm/hr 4.14 in105.2 mm
08:41 PM 71.8°F22.1°C 69.6°F20.9°C 93% Calm Calm 1.3 mph2.1 kmh 29.84 in1010.5 mb 0.41 in10.4 mm 0.60 in/hr15.2 mm/hr 4.16 in105.7 mm
08:43 PM 71.8°F22.1°C 69.6°F20.9°C 93% Calm Calm 1.3 mph2.1 kmh 29.84 in1010.5 mb 0.41 in10.4 mm 0.00 in/hr0.0 mm/hr 4.16 in105.7 mm
08:45 PM 71.8°F22.1°C 69.6°F20.9°C 93% 4.7 mph E7.6 kmh E 4.7 mph7.6 kmh 29.85 in1010.8 mb 0.43 in10.9 mm 0.60 in/hr15.2 mm/hr 4.18 in106.2 mm
08:47 PM 71.8°F22.1°C 69.6°F20.9°C 93% 4.7 mph ENE7.6 kmh ENE 4.7 mph7.6 kmh 29.84 in1010.5 mb 0.45 in11.4 mm 0.60 in/hr15.2 mm/hr 4.20 in106.7 mm
08:49 PM 71.8°F22.1°C 69.6°F20.9°C 93% 3.8 mph ENE6.1 kmh ENE 4.7 mph7.6 kmh 29.85 in1010.8 mb 0.45 in11.4 mm 0.00 in/hr0.0 mm/hr 4.20 in106.7 mm
08:51 PM 71.8°F22.1°C 69.6°F20.9°C 93% 9.4 mph E15.1 kmh E 9.4 mph15.1 kmh 29.85 in1010.8 mb 0.45 in11.4 mm 0.00 in/hr0.0 mm/hr 4.20 in106.7 mm
08:53 PM 71.8°F22.1°C 69.6°F20.9°C 93% 2.7 mph E4.3 kmh E 9.4 mph15.1 kmh 29.85 in1010.8 mb 0.45 in11.4 mm 0.00 in/hr0.0 mm/hr 4.20 in106.7 mm
08:55 PM 71.8°F22.1°C 69.6°F20.9°C 93% 2.5 mph E4.0 kmh E 9.4 mph15.1 kmh 29.85 in1010.8 mb 0.43 in10.9 mm 0.00 in/hr0.0 mm/hr 4.22 in107.2 mm
08:57 PM 71.8°F22.1°C 69.6°F20.9°C 93% Calm Calm 9.4 mph15.1 kmh 29.85 in1010.8 mb 0.45 in11.4 mm 0.60 in/hr15.2 mm/hr 4.22 in107.2 mm
08:59 PM 71.8°F22.1°C 69.6°F20.9°C 93% Calm Calm 9.4 mph15.1 kmh 29.85 in1010.8 mb 0.45 in11.4 mm 0.00 in/hr0.0 mm/hr 4.22 in107.2 mm
09:01 PM 71.8°F22.1°C 69.6°F20.9°C 93% 8.7 mph ESE14.0 kmh ESE 9.4 mph15.1 kmh 29.85 in1010.8 mb 0.45 in11.4 mm 0.00 in/hr0.0 mm/hr 4.22 in107.2 mm
09:03 PM 71.8°F22.1°C 69.6°F20.9°C 93% Calm Calm 8.7 mph14.0 kmh 29.85 in1010.8 mb 0.47 in11.9 mm 0.60 in/hr15.2 mm/hr 4.24 in107.7 mm
09:05 PM 71.8°F22.1°C 69.6°F20.9°C 93% Calm Calm 8.7 mph14.0 kmh 29.85 in1010.8 mb 0.49 in12.4 mm 0.60 in/hr15.2 mm/hr 4.26 in108.2 mm
09:07 PM 71.8°F22.1°C 69.6°F20.9°C 93% 0.9 mph SSE1.4 kmh SSE 8.7 mph14.0 kmh 29.85 in1010.8 mb 0.49 in12.4 mm 0.00 in/hr0.0 mm/hr 4.26 in108.2 mm
09:09 PM 71.8°F22.1°C 69.6°F20.9°C 93% Calm Calm 8.7 mph14.0 kmh 29.85 in1010.8 mb 0.45 in11.4 mm 0.00 in/hr0.0 mm/hr 4.26 in108.2 mm
09:11 PM 71.8°F22.1°C 69.6°F20.9°C 93% 3.6 mph E5.8 kmh E 8.7 mph14.0 kmh 29.85 in1010.8 mb 0.43 in10.9 mm 0.00 in/hr0.0 mm/hr 4.26 in108.2 mm
09:13 PM 71.8°F22.1°C 69.6°F20.9°C 93% Calm Calm 3.6 mph5.8 kmh 29.84 in1010.5 mb 0.41 in10.4 mm 0.00 in/hr0.0 mm/hr 4.28 in108.7 mm
09:15 PM 71.8°F22.1°C 69.6°F20.9°C 93% Calm Calm 3.6 mph5.8 kmh 29.85 in1010.8 mb 0.41 in10.4 mm 0.00 in/hr0.0 mm/hr 4.28 in108.7 mm
09:17 PM 71.8°F22.1°C 69.6°F20.9°C 93% 3.4 mph E5.5 kmh E 3.6 mph5.8 kmh 29.84 in1010.5 mb 0.41 in10.4 mm 0.00 in/hr0.0 mm/hr 4.28 in108.7 mm
09:19 PM 71.6°F22.0°C 69.5°F20.8°C 93% Calm Calm 3.6 mph5.8 kmh 29.84 in1010.5 mb 0.39 in9.9 mm 0.00 in/hr0.0 mm/hr 4.28 in108.7 mm
09:21 PM 71.8°F22.1°C 69.6°F20.9°C 93% 2.2 mph E3.5 kmh E 3.6 mph5.8 kmh 29.84 in1010.5 mb 0.31 in7.9 mm 0.00 in/hr0.0 mm/hr 4.30 in109.2 mm
09:23 PM 71.8°F22.1°C 69.6°F20.9°C 93% 5.1 mph E8.2 kmh E 5.1 mph8.2 kmh 29.84 in1010.5 mb 0.26 in6.6 mm 0.00 in/hr0.0 mm/hr 4.30 in109.2 mm
09:25 PM 71.8°F22.1°C 69.6°F20.9°C 93% Calm Calm 5.1 mph8.2 kmh 29.84 in1010.5 mb 0.24 in6.1 mm 0.00 in/hr0.0 mm/hr 4.30 in109.2 mm
09:27 PM 71.8°F22.1°C 69.6°F20.9°C 93% 7.2 mph ENE11.6 kmh ENE 7.2 mph11.6 kmh 29.85 in1010.8 mb 0.24 in6.1 mm 0.00 in/hr0.0 mm/hr 4.30 in109.2 mm
09:29 PM 71.8°F22.1°C 69.6°F20.9°C 93% 7.2 mph NE11.6 kmh NE 7.2 mph11.6 kmh 29.85 in1010.8 mb 0.20 in5.1 mm 0.00 in/hr0.0 mm/hr 4.30 in109.2 mm
09:31 PM 71.8°F22.1°C 69.6°F20.9°C 93% 5.4 mph ENE8.7 kmh ENE 7.2 mph11.6 kmh 29.85 in1010.8 mb 0.20 in5.1 mm 0.00 in/hr0.0 mm/hr 4.32 in109.7 mm
09:33 PM 71.8°F22.1°C 69.6°F20.9°C 93% 5.4 mph E8.7 kmh E 7.2 mph11.6 kmh 29.85 in1010.8 mb 0.20 in5.1 mm 0.00 in/hr0.0 mm/hr 4.32 in109.7 mm
09:35 PM 71.8°F22.1°C 69.6°F20.9°C 93% 5.6 mph E9.0 kmh E 7.2 mph11.6 kmh 29.85 in1010.8 mb 0.20 in5.1 mm 0.00 in/hr0.0 mm/hr 4.32 in109.7 mm
09:37 PM 71.8°F22.1°C 69.6°F20.9°C 93% 4.3 mph E6.9 kmh E 7.2 mph11.6 kmh 29.85 in1010.8 mb 0.18 in4.6 mm 0.00 in/hr0.0 mm/hr 4.32 in109.7 mm
09:39 PM 71.8°F22.1°C 69.6°F20.9°C 93% 2.7 mph ESE4.3 kmh ESE 5.6 mph9.0 kmh 29.85 in1010.8 mb 0.20 in5.1 mm 0.60 in/hr15.2 mm/hr 4.34 in110.2 mm
09:41 PM 71.8°F22.1°C 69.6°F20.9°C 93% 2.7 mph SE4.3 kmh SE 5.6 mph9.0 kmh 29.85 in1010.8 mb 0.18 in4.6 mm 0.00 in/hr0.0 mm/hr 4.34 in110.2 mm
09:43 PM 71.8°F22.1°C 70.0°F21.1°C 94% 4.7 mph SE7.6 kmh SE 5.6 mph9.0 kmh 29.84 in1010.5 mb 0.18 in4.6 mm 0.00 in/hr0.0 mm/hr 4.34 in110.2 mm
09:45 PM 72.0°F22.2°C 70.1°F21.2°C 94% 0.9 mph SE1.4 kmh SE 5.6 mph9.0 kmh 29.84 in1010.5 mb 0.16 in4.1 mm 0.00 in/hr0.0 mm/hr 4.34 in110.2 mm
09:47 PM 72.0°F22.2°C 70.1°F21.2°C 94% 1.6 mph SE2.6 kmh SE 4.7 mph7.6 kmh 29.85 in1010.8 mb 0.16 in4.1 mm 0.00 in/hr0.0 mm/hr 4.36 in110.7 mm
09:49 PM 72.0°F22.2°C 70.1°F21.2°C 94% 0.9 mph ESE1.4 kmh ESE 4.7 mph7.6 kmh 29.85 in1010.8 mb 0.16 in4.1 mm 0.00 in/hr0.0 mm/hr 4.36 in110.7 mm
09:51 PM 72.0°F22.2°C 70.1°F21.2°C 94% Calm Calm 4.7 mph7.6 kmh 29.85 in1010.8 mb 0.16 in4.1 mm 0.00 in/hr0.0 mm/hr 4.36 in110.7 mm
09:53 PM 72.0°F22.2°C 70.1°F21.2°C 94% Calm Calm 4.7 mph7.6 kmh 29.85 in1010.8 mb 0.16 in4.1 mm 0.00 in/hr0.0 mm/hr 4.36 in110.7 mm
09:55 PM 72.0°F22.2°C 70.1°F21.2°C 94% 3.4 mph NNE5.5 kmh NNE 3.4 mph5.5 kmh 29.85 in1010.8 mb 0.16 in4.1 mm 0.00 in/hr0.0 mm/hr 4.38 in111.3 mm
09:57 PM 72.0°F22.2°C 70.1°F21.2°C 94% Calm Calm 3.4 mph5.5 kmh 29.85 in1010.8 mb 0.16 in4.1 mm 0.00 in/hr0.0 mm/hr 4.38 in111.3 mm
09:59 PM 72.0°F22.2°C 70.1°F21.2°C 94% Calm Calm 3.4 mph5.5 kmh 29.84 in1010.5 mb 0.16 in4.1 mm 0.00 in/hr0.0 mm/hr 4.38 in111.3 mm
10:01 PM 72.0°F22.2°C 69.8°F21.0°C 93% Calm Calm 3.4 mph5.5 kmh 29.84 in1010.5 mb 0.14 in3.6 mm 0.00 in/hr0.0 mm/hr 4.38 in111.3 mm
10:03 PM 72.0°F22.2°C 69.8°F21.0°C 93% Calm Calm 3.4 mph5.5 kmh 29.84 in1010.5 mb 0.14 in3.6 mm 0.00 in/hr0.0 mm/hr 4.38 in111.3 mm
10:05 PM 71.8°F22.1°C 69.6°F20.9°C 93% Calm Calm 3.4 mph5.5 kmh 29.84 in1010.5 mb 0.14 in3.6 mm 0.00 in/hr0.0 mm/hr 4.40 in111.8 mm
10:07 PM 71.8°F22.1°C 69.6°F20.9°C 93% Calm Calm -- 29.84 in1010.5 mb 0.14 in3.6 mm 0.00 in/hr0.0 mm/hr 4.40 in111.8 mm
10:09 PM 71.8°F22.1°C 69.6°F20.9°C 93% Calm Calm -- 29.84 in1010.5 mb 0.16 in4.1 mm 0.60 in/hr15.2 mm/hr 4.42 in112.3 mm
10:11 PM 71.8°F22.1°C 69.6°F20.9°C 93% Calm Calm -- 29.85 in1010.8 mb 0.16 in4.1 mm 0.00 in/hr0.0 mm/hr 4.42 in112.3 mm
10:13 PM 71.8°F22.1°C 69.6°F20.9°C 93% Calm Calm -- 29.84 in1010.5 mb 0.16 in4.1 mm 0.00 in/hr0.0 mm/hr 4.44 in112.8 mm
10:15 PM 71.8°F22.1°C 69.6°F20.9°C 93% Calm Calm -- 29.84 in1010.5 mb 0.16 in4.1 mm 0.00 in/hr0.0 mm/hr 4.44 in112.8 mm
10:17 PM 71.8°F22.1°C 69.6°F20.9°C 93% Calm Calm -- 29.84 in1010.5 mb 0.20 in5.1 mm 1.20 in/hr30.5 mm/hr 4.49 in114.0 mm
10:19 PM 71.6°F22.0°C 69.5°F20.8°C 93% 1.3 mph SE2.1 kmh SE 1.3 mph2.1 kmh 29.84 in1010.5 mb 0.29 in7.4 mm 2.70 in/hr68.6 mm/hr 4.57 in116.1 mm
10:21 PM 71.8°F22.1°C 69.6°F20.9°C 93% Calm Calm 1.3 mph2.1 kmh 29.84 in1010.5 mb 0.33 in8.4 mm 1.20 in/hr30.5 mm/hr 4.63 in117.6 mm
10:23 PM 71.8°F22.1°C 69.6°F20.9°C 93% Calm Calm 1.3 mph2.1 kmh 29.84 in1010.5 mb 0.33 in8.4 mm 0.00 in/hr0.0 mm/hr 4.63 in117.6 mm
10:25 PM 71.8°F22.1°C 69.6°F20.9°C 93% Calm Calm 1.3 mph2.1 kmh 29.83 in1010.2 mb 0.33 in8.4 mm 0.00 in/hr0.0 mm/hr 4.67 in118.6 mm
10:27 PM 71.6°F22.0°C 69.5°F20.8°C 93% 0.9 mph SE1.4 kmh SE 1.3 mph2.1 kmh 29.84 in1010.5 mb 0.37 in9.4 mm 1.20 in/hr30.5 mm/hr 4.67 in118.6 mm
10:29 PM 71.6°F22.0°C 69.5°F20.8°C 93% 4.9 mph E7.9 kmh E 4.9 mph7.9 kmh 29.84 in1010.5 mb 0.35 in8.9 mm 0.00 in/hr0.0 mm/hr 4.69 in119.1 mm
10:31 PM 71.6°F22.0°C 69.5°F20.8°C 93% 4.9 mph SE7.9 kmh SE 4.9 mph7.9 kmh 29.84 in1010.5 mb 0.37 in9.4 mm 0.60 in/hr15.2 mm/hr 4.69 in119.1 mm
10:33 PM 71.4°F21.9°C 69.3°F20.7°C 93% 3.8 mph E6.1 kmh E 4.9 mph7.9 kmh 29.84 in1010.5 mb 0.37 in9.4 mm 0.00 in/hr0.0 mm/hr 4.69 in119.1 mm
10:35 PM 71.6°F22.0°C 69.5°F20.8°C 93% 2.0 mph ENE3.2 kmh ENE 4.9 mph7.9 kmh 29.84 in1010.5 mb 0.37 in9.4 mm 0.00 in/hr0.0 mm/hr 4.69 in119.1 mm
10:37 PM 71.6°F22.0°C 69.5°F20.8°C 93% 1.3 mph ENE2.1 kmh ENE 4.9 mph7.9 kmh 29.83 in1010.2 mb 0.37 in9.4 mm 0.00 in/hr0.0 mm/hr 4.69 in119.1 mm
10:39 PM 71.6°F22.0°C 69.5°F20.8°C 93% Calm Calm 4.9 mph7.9 kmh 29.83 in1010.2 mb 0.37 in9.4 mm 0.00 in/hr0.0 mm/hr 4.71 in119.6 mm
10:41 PM 71.6°F22.0°C 69.5°F20.8°C 93% Calm Calm 3.8 mph6.1 kmh 29.83 in1010.2 mb 0.37 in9.4 mm 0.00 in/hr0.0 mm/hr 4.71 in119.6 mm
10:43 PM 71.8°F22.1°C 69.6°F20.9°C 93% Calm Calm 3.8 mph6.1 kmh 29.83 in1010.2 mb 0.37 in9.4 mm 0.00 in/hr0.0 mm/hr 4.71 in119.6 mm
10:45 PM 71.8°F22.1°C 69.6°F20.9°C 93% Calm Calm 2.0 mph3.2 kmh 29.83 in1010.2 mb 0.37 in9.4 mm 0.00 in/hr0.0 mm/hr 4.71 in119.6 mm
10:47 PM 71.6°F22.0°C 69.5°F20.8°C 93% Calm Calm 1.3 mph2.1 kmh 29.83 in1010.2 mb 0.37 in9.4 mm 0.00 in/hr0.0 mm/hr 4.73 in120.1 mm
10:49 PM 71.8°F22.1°C 69.6°F20.9°C 93% Calm Calm -- 29.83 in1010.2 mb 0.37 in9.4 mm 0.00 in/hr0.0 mm/hr 4.73 in120.1 mm
10:51 PM 71.6°F22.0°C 69.5°F20.8°C 93% Calm Calm -- 29.83 in1010.2 mb 0.37 in9.4 mm 0.00 in/hr0.0 mm/hr 4.73 in120.1 mm
10:53 PM 71.6°F22.0°C 69.5°F20.8°C 93% Calm Calm -- 29.83 in1010.2 mb 0.37 in9.4 mm 0.00 in/hr0.0 mm/hr 4.73 in120.1 mm
10:55 PM 71.6°F22.0°C 69.5°F20.8°C 93% Calm Calm -- 29.83 in1010.2 mb 0.35 in8.9 mm 0.00 in/hr0.0 mm/hr 4.73 in120.1 mm
10:57 PM 71.6°F22.0°C 69.5°F20.8°C 93% Calm Calm -- 29.83 in1010.2 mb 0.35 in8.9 mm 0.00 in/hr0.0 mm/hr 4.73 in120.1 mm
10:59 PM 71.8°F22.1°C 69.6°F20.9°C 93% Calm Calm -- 29.83 in1010.2 mb 0.35 in8.9 mm 0.00 in/hr0.0 mm/hr 4.73 in120.1 mm
11:01 PM 71.8°F22.1°C 69.6°F20.9°C 93% Calm Calm -- 29.82 in1009.8 mb 0.35 in8.9 mm 0.00 in/hr0.0 mm/hr 4.73 in120.1 mm
11:03 PM 71.8°F22.1°C 69.6°F20.9°C 93% 2.5 mph N4.0 kmh N 2.5 mph4.0 kmh 29.83 in1010.2 mb 0.33 in8.4 mm 0.00 in/hr0.0 mm/hr 4.73 in120.1 mm
11:05 PM 71.8°F22.1°C 69.6°F20.9°C 93% Calm Calm 2.5 mph4.0 kmh 29.82 in1009.8 mb 0.35 in8.9 mm 0.60 in/hr15.2 mm/hr 4.75 in120.7 mm
11:07 PM 71.8°F22.1°C 69.6°F20.9°C 93% Calm Calm 2.5 mph4.0 kmh 29.82 in1009.8 mb 0.33 in8.4 mm 0.00 in/hr0.0 mm/hr 4.75 in120.7 mm
11:09 PM 71.6°F22.0°C 69.5°F20.8°C 93% Calm Calm 2.5 mph4.0 kmh 29.82 in1009.8 mb 0.33 in8.4 mm 0.00 in/hr0.0 mm/hr 4.75 in120.7 mm
11:11 PM 71.8°F22.1°C 69.6°F20.9°C 93% Calm Calm 2.5 mph4.0 kmh 29.82 in1009.8 mb 0.33 in8.4 mm 0.00 in/hr0.0 mm/hr 4.75 in120.7 mm
11:13 PM 71.8°F22.1°C 69.6°F20.9°C 93% Calm Calm 2.5 mph4.0 kmh 29.81 in1009.5 mb 0.33 in8.4 mm 0.00 in/hr0.0 mm/hr 4.77 in121.2 mm
11:15 PM 71.8°F22.1°C 69.6°F20.9°C 93% Calm Calm -- 29.81 in1009.5 mb 0.33 in8.4 mm 0.00 in/hr0.0 mm/hr 4.77 in121.2 mm
11:17 PM 71.8°F22.1°C 69.6°F20.9°C 93% Calm Calm -- 29.81 in1009.5 mb 0.29 in7.4 mm 0.00 in/hr0.0 mm/hr 4.77 in121.2 mm
11:19 PM 71.8°F22.1°C 69.6°F20.9°C 93% Calm Calm -- 29.82 in1009.8 mb 0.20 in5.1 mm 0.00 in/hr0.0 mm/hr 4.77 in121.2 mm
11:21 PM 71.8°F22.1°C 69.6°F20.9°C 93% Calm Calm -- 29.81 in1009.5 mb 0.14 in3.6 mm 0.00 in/hr0.0 mm/hr 4.77 in121.2 mm
11:23 PM 71.8°F22.1°C 69.6°F20.9°C 93% Calm Calm -- 29.81 in1009.5 mb 0.14 in3.6 mm 0.00 in/hr0.0 mm/hr 4.77 in121.2 mm
11:25 PM 71.8°F22.1°C 70.0°F21.1°C 94% Calm Calm -- 29.81 in1009.5 mb 0.10 in2.5 mm 0.00 in/hr0.0 mm/hr 4.77 in121.2 mm
11:27 PM 71.8°F22.1°C 70.0°F21.1°C 94% Calm Calm -- 29.81 in1009.5 mb 0.10 in2.5 mm 0.00 in/hr0.0 mm/hr 4.77 in121.2 mm
11:29 PM 71.8°F22.1°C 70.0°F21.1°C 93% Calm Calm -- 29.81 in1009.5 mb 0.10 in2.5 mm 0.00 in/hr0.0 mm/hr 4.79 in121.7 mm
11:31 PM 71.8°F22.1°C 69.6°F20.9°C 93% Calm Calm -- 29.80 in1009.1 mb 0.10 in2.5 mm 0.00 in/hr0.0 mm/hr 4.79 in121.7 mm
11:33 PM 71.8°F22.1°C 70.0°F21.1°C 94% Calm Calm -- 29.80 in1009.1 mb 0.10 in2.5 mm 0.00 in/hr0.0 mm/hr 4.79 in121.7 mm
11:35 PM 71.8°F22.1°C 70.0°F21.1°C 94% 3.1 mph ENE5.0 kmh ENE 3.1 mph5.0 kmh 29.80 in1009.1 mb 0.10 in2.5 mm 0.00 in/hr0.0 mm/hr 4.79 in121.7 mm
11:37 PM 71.8°F22.1°C 69.6°F20.9°C 93% Calm Calm 3.1 mph5.0 kmh 29.80 in1009.1 mb 0.12 in3.0 mm 0.60 in/hr15.2 mm/hr 4.83 in122.7 mm
11:39 PM 71.8°F22.1°C 69.6°F20.9°C 93% Calm Calm 3.1 mph5.0 kmh 29.80 in1009.1 mb 0.12 in3.0 mm 0.00 in/hr0.0 mm/hr 4.83 in122.7 mm
11:41 PM 71.8°F22.1°C 70.0°F21.1°C 94% Calm Calm 3.1 mph5.0 kmh 29.79 in1008.8 mb 0.12 in3.0 mm 0.00 in/hr0.0 mm/hr 4.83 in122.7 mm
11:43 PM 71.8°F22.1°C 70.0°F21.1°C 94% 3.8 mph E6.1 kmh E 3.8 mph6.1 kmh 29.80 in1009.1 mb 0.12 in3.0 mm 0.00 in/hr0.0 mm/hr 4.83 in122.7 mm
11:45 PM 71.8°F22.1°C 70.0°F21.1°C 94% 0.9 mph SE1.4 kmh SE 3.8 mph6.1 kmh 29.80 in1009.1 mb 0.12 in3.0 mm 0.00 in/hr0.0 mm/hr 4.83 in122.7 mm
11:47 PM 71.8°F22.1°C 70.0°F21.1°C 94% 5.8 mph ESE9.3 kmh ESE 5.8 mph9.3 kmh 29.80 in1009.1 mb 0.12 in3.0 mm 0.00 in/hr0.0 mm/hr 4.85 in123.2 mm
11:49 PM 71.8°F22.1°C 70.0°F21.1°C 94% Calm Calm 5.8 mph9.3 kmh 29.80 in1009.1 mb 0.12 in3.0 mm 0.00 in/hr0.0 mm/hr 4.85 in123.2 mm
11:51 PM 71.8°F22.1°C 70.0°F21.1°C 94% Calm Calm 5.8 mph9.3 kmh 29.81 in1009.5 mb 0.12 in3.0 mm 0.00 in/hr0.0 mm/hr 4.85 in123.2 mm
11:53 PM 71.8°F22.1°C 70.0°F21.1°C 94% Calm Calm 5.8 mph9.3 kmh 29.81 in1009.5 mb 0.14 in3.6 mm 0.60 in/hr15.2 mm/hr 4.87 in123.7 mm
11:55 PM 71.8°F22.1°C 70.0°F21.1°C 94% Calm Calm 5.8 mph9.3 kmh 29.80 in1009.1 mb 0.27 in6.9 mm 3.90 in/hr99.1 mm/hr 4.99 in126.7 mm
11:57 PM 71.8°F22.1°C 70.0°F21.1°C 94% Calm Calm 5.8 mph9.3 kmh 29.81 in1009.5 mb 0.27 in6.9 mm 0.00 in/hr0.0 mm/hr 4.99 in126.7 mm
11:59 PM 71.8°F22.1°C 70.0°F21.1°C 94% 3.6 mph N5.8 kmh N 3.6 mph5.8 kmh 29.81 in1009.5 mb 0.27 in6.9 mm 0.00 in/hr0.0 mm/hr 5.10 in129.5 mm